<?xml version="1.0" encoding="UTF-8" standalone="no" ?>
<gpx xmlns="http://www.topografix.com/GPX/1/1" xmlns:xsi="http://www.w3.org/2001/XMLSchema-instance" xsi:schemaLocation="http://www.topografix.com/GPX/1/1 http://www.topografix.com/GPX/1/1/gpx.xsd" version="1.1" creator="VisuGPX - https://www.visugpx.com">
  <metadata>
    <name>Etang du Roi avec Tobefree</name>
    <desc><![CDATA[Première sortie en extérieur, depuis 2 ans, pour Tobefree. Jument de dressage mais très à l\'aise en extérieur !]]></desc>
  </metadata>
  <trk>
    <name><![CDATA[Étang du Roi avec Tobefree]]></name>
    <trkseg>
      <trkpt lat="48.70626" lon="1.75642">
        <ele>182</ele>
        <time>2014-05-07T12:05:45.000Z</time>
      </trkpt>
      <trkpt lat="48.70626" lon="1.75641">
        <ele>182</ele>
        <time>2014-05-07T12:05:46.000Z</time>
      </trkpt>
      <trkpt lat="48.7062" lon="1.75634">
        <ele>182.39999389648</ele>
        <time>2014-05-07T12:05:52.000Z</time>
      </trkpt>
      <trkpt lat="48.70616" lon="1.75627">
        <ele>182.80000305176</ele>
        <time>2014-05-07T12:05:57.000Z</time>
      </trkpt>
      <trkpt lat="48.70611" lon="1.75618">
        <ele>183.19999694824</ele>
        <time>2014-05-07T12:06:02.000Z</time>
      </trkpt>
      <trkpt lat="48.70606" lon="1.75612">
        <ele>183.80000305176</ele>
        <time>2014-05-07T12:06:08.000Z</time>
      </trkpt>
      <trkpt lat="48.70604" lon="1.75611">
        <ele>183.80000305176</ele>
        <time>2014-05-07T12:06:09.000Z</time>
      </trkpt>
      <trkpt lat="48.70601" lon="1.75606">
        <ele>183.80000305176</ele>
        <time>2014-05-07T12:06:13.000Z</time>
      </trkpt>
      <trkpt lat="48.70595" lon="1.75596">
        <ele>183.80000305176</ele>
        <time>2014-05-07T12:06:19.000Z</time>
      </trkpt>
      <trkpt lat="48.70589" lon="1.75593">
        <ele>183.80000305176</ele>
        <time>2014-05-07T12:06:25.000Z</time>
      </trkpt>
      <trkpt lat="48.70584" lon="1.75587">
        <ele>183.80000305176</ele>
        <time>2014-05-07T12:06:29.000Z</time>
      </trkpt>
      <trkpt lat="48.70577" lon="1.75579">
        <ele>183.80000305176</ele>
        <time>2014-05-07T12:06:34.000Z</time>
      </trkpt>
      <trkpt lat="48.70571" lon="1.75573">
        <ele>183.80000305176</ele>
        <time>2014-05-07T12:06:39.000Z</time>
      </trkpt>
      <trkpt lat="48.70564" lon="1.75568">
        <ele>183.80000305176</ele>
        <time>2014-05-07T12:06:43.000Z</time>
      </trkpt>
      <trkpt lat="48.70561" lon="1.75567">
        <ele>183.80000305176</ele>
        <time>2014-05-07T12:06:47.000Z</time>
      </trkpt>
      <trkpt lat="48.70558" lon="1.75564">
        <ele>183.80000305176</ele>
        <time>2014-05-07T12:06:52.000Z</time>
      </trkpt>
      <trkpt lat="48.70553" lon="1.7556">
        <ele>183.60000610352</ele>
        <time>2014-05-07T12:06:57.000Z</time>
      </trkpt>
      <trkpt lat="48.7055" lon="1.75557">
        <ele>183.60000610352</ele>
        <time>2014-05-07T12:06:59.000Z</time>
      </trkpt>
      <trkpt lat="48.70545" lon="1.75552">
        <ele>183.39999389648</ele>
        <time>2014-05-07T12:07:05.000Z</time>
      </trkpt>
      <trkpt lat="48.70542" lon="1.75548">
        <ele>183.39999389648</ele>
        <time>2014-05-07T12:07:08.000Z</time>
      </trkpt>
      <trkpt lat="48.70538" lon="1.75543">
        <ele>183.19999694824</ele>
        <time>2014-05-07T12:07:14.000Z</time>
      </trkpt>
      <trkpt lat="48.70537" lon="1.75539">
        <ele>183</ele>
        <time>2014-05-07T12:07:18.000Z</time>
      </trkpt>
      <trkpt lat="48.70535" lon="1.75535">
        <ele>183</ele>
        <time>2014-05-07T12:07:43.000Z</time>
      </trkpt>
      <trkpt lat="48.7053" lon="1.75529">
        <ele>182.80000305176</ele>
        <time>2014-05-07T12:07:47.000Z</time>
      </trkpt>
      <trkpt lat="48.70529" lon="1.75524">
        <ele>182.60000610352</ele>
        <time>2014-05-07T12:07:52.000Z</time>
      </trkpt>
      <trkpt lat="48.70524" lon="1.75517">
        <ele>182.39999389648</ele>
        <time>2014-05-07T12:07:57.000Z</time>
      </trkpt>
      <trkpt lat="48.7052" lon="1.75515">
        <ele>182.39999389648</ele>
        <time>2014-05-07T12:08:01.000Z</time>
      </trkpt>
      <trkpt lat="48.70513" lon="1.75508">
        <ele>182.19999694824</ele>
        <time>2014-05-07T12:08:06.000Z</time>
      </trkpt>
      <trkpt lat="48.70502" lon="1.755">
        <ele>182.19999694824</ele>
        <time>2014-05-07T12:08:12.000Z</time>
      </trkpt>
      <trkpt lat="48.70501" lon="1.75498">
        <ele>182.19999694824</ele>
        <time>2014-05-07T12:08:13.000Z</time>
      </trkpt>
      <trkpt lat="48.70497" lon="1.75496">
        <ele>182.19999694824</ele>
        <time>2014-05-07T12:08:16.000Z</time>
      </trkpt>
      <trkpt lat="48.7049" lon="1.75488">
        <ele>182.19999694824</ele>
        <time>2014-05-07T12:08:22.000Z</time>
      </trkpt>
      <trkpt lat="48.70486" lon="1.75484">
        <ele>182.19999694824</ele>
        <time>2014-05-07T12:08:25.000Z</time>
      </trkpt>
      <trkpt lat="48.70482" lon="1.75479">
        <ele>182.19999694824</ele>
        <time>2014-05-07T12:08:30.000Z</time>
      </trkpt>
      <trkpt lat="48.70476" lon="1.75476">
        <ele>182.19999694824</ele>
        <time>2014-05-07T12:08:36.000Z</time>
      </trkpt>
      <trkpt lat="48.70464" lon="1.75465">
        <ele>182.39999389648</ele>
        <time>2014-05-07T12:08:44.000Z</time>
      </trkpt>
      <trkpt lat="48.70458" lon="1.75459">
        <ele>182.60000610352</ele>
        <time>2014-05-07T12:08:50.000Z</time>
      </trkpt>
      <trkpt lat="48.70455" lon="1.75453">
        <ele>182.60000610352</ele>
        <time>2014-05-07T12:08:54.000Z</time>
      </trkpt>
      <trkpt lat="48.70451" lon="1.7545">
        <ele>182.60000610352</ele>
        <time>2014-05-07T12:08:58.000Z</time>
      </trkpt>
      <trkpt lat="48.70446" lon="1.75446">
        <ele>182.60000610352</ele>
        <time>2014-05-07T12:09:03.000Z</time>
      </trkpt>
      <trkpt lat="48.70441" lon="1.75442">
        <ele>182.80000305176</ele>
        <time>2014-05-07T12:09:08.000Z</time>
      </trkpt>
      <trkpt lat="48.70438" lon="1.75439">
        <ele>182.80000305176</ele>
        <time>2014-05-07T12:09:12.000Z</time>
      </trkpt>
      <trkpt lat="48.70434" lon="1.75437">
        <ele>182.80000305176</ele>
        <time>2014-05-07T12:09:14.000Z</time>
      </trkpt>
      <trkpt lat="48.70422" lon="1.75429">
        <ele>182.39999389648</ele>
        <time>2014-05-07T12:09:19.000Z</time>
      </trkpt>
      <trkpt lat="48.70403" lon="1.75419">
        <ele>182</ele>
        <time>2014-05-07T12:09:26.000Z</time>
      </trkpt>
      <trkpt lat="48.70403" lon="1.75419">
        <ele>182</ele>
        <time>2014-05-07T12:09:29.000Z</time>
      </trkpt>
      <trkpt lat="48.70403" lon="1.75418">
        <ele>182</ele>
        <time>2014-05-07T12:09:33.000Z</time>
      </trkpt>
      <trkpt lat="48.70394" lon="1.75399">
        <ele>181.39999389648</ele>
        <time>2014-05-07T12:09:51.000Z</time>
      </trkpt>
      <trkpt lat="48.70393" lon="1.75399">
        <ele>181.39999389648</ele>
        <time>2014-05-07T12:09:52.000Z</time>
      </trkpt>
      <trkpt lat="48.70383" lon="1.75402">
        <ele>181.39999389648</ele>
        <time>2014-05-07T12:09:58.000Z</time>
      </trkpt>
      <trkpt lat="48.70383" lon="1.75403">
        <ele>181.39999389648</ele>
        <time>2014-05-07T12:09:59.000Z</time>
      </trkpt>
      <trkpt lat="48.70377" lon="1.75399">
        <ele>181.19999694824</ele>
        <time>2014-05-07T12:10:06.000Z</time>
      </trkpt>
      <trkpt lat="48.70369" lon="1.75393">
        <ele>181.19999694824</ele>
        <time>2014-05-07T12:10:12.000Z</time>
      </trkpt>
      <trkpt lat="48.70357" lon="1.75386">
        <ele>181</ele>
        <time>2014-05-07T12:10:19.000Z</time>
      </trkpt>
      <trkpt lat="48.7035" lon="1.75381">
        <ele>181</ele>
        <time>2014-05-07T12:10:24.000Z</time>
      </trkpt>
      <trkpt lat="48.70347" lon="1.75378">
        <ele>180.80000305176</ele>
        <time>2014-05-07T12:10:29.000Z</time>
      </trkpt>
      <trkpt lat="48.70343" lon="1.75372">
        <ele>180.80000305176</ele>
        <time>2014-05-07T12:10:34.000Z</time>
      </trkpt>
      <trkpt lat="48.70336" lon="1.75366">
        <ele>180.60000610352</ele>
        <time>2014-05-07T12:10:41.000Z</time>
      </trkpt>
      <trkpt lat="48.7033" lon="1.75363">
        <ele>180.39999389648</ele>
        <time>2014-05-07T12:10:47.000Z</time>
      </trkpt>
      <trkpt lat="48.70323" lon="1.75356">
        <ele>180.19999694824</ele>
        <time>2014-05-07T12:10:53.000Z</time>
      </trkpt>
      <trkpt lat="48.70323" lon="1.75356">
        <ele>180.19999694824</ele>
        <time>2014-05-07T12:10:54.000Z</time>
      </trkpt>
      <trkpt lat="48.70316" lon="1.75347">
        <ele>180.19999694824</ele>
        <time>2014-05-07T12:11:01.000Z</time>
      </trkpt>
      <trkpt lat="48.7031" lon="1.75339">
        <ele>180</ele>
        <time>2014-05-07T12:11:06.000Z</time>
      </trkpt>
      <trkpt lat="48.70304" lon="1.75331">
        <ele>179.80000305176</ele>
        <time>2014-05-07T12:11:09.000Z</time>
      </trkpt>
      <trkpt lat="48.70298" lon="1.75323">
        <ele>179.60000610352</ele>
        <time>2014-05-07T12:11:16.000Z</time>
      </trkpt>
      <trkpt lat="48.70302" lon="1.75323">
        <ele>179.80000305176</ele>
        <time>2014-05-07T12:11:24.000Z</time>
      </trkpt>
      <trkpt lat="48.70292" lon="1.75316">
        <ele>179.60000610352</ele>
        <time>2014-05-07T12:11:40.000Z</time>
      </trkpt>
      <trkpt lat="48.70292" lon="1.75316">
        <ele>179.60000610352</ele>
        <time>2014-05-07T12:11:42.000Z</time>
      </trkpt>
      <trkpt lat="48.70294" lon="1.75317">
        <ele>179.60000610352</ele>
        <time>2014-05-07T12:11:57.000Z</time>
      </trkpt>
      <trkpt lat="48.70299" lon="1.75316">
        <ele>179.80000305176</ele>
        <time>2014-05-07T12:12:04.000Z</time>
      </trkpt>
      <trkpt lat="48.70301" lon="1.75315">
        <ele>179.80000305176</ele>
        <time>2014-05-07T12:12:09.000Z</time>
      </trkpt>
      <trkpt lat="48.703" lon="1.75314">
        <ele>179.80000305176</ele>
        <time>2014-05-07T12:12:12.000Z</time>
      </trkpt>
      <trkpt lat="48.70303" lon="1.75311">
        <ele>180</ele>
        <time>2014-05-07T12:12:26.000Z</time>
      </trkpt>
      <trkpt lat="48.70303" lon="1.75311">
        <ele>180</ele>
        <time>2014-05-07T12:12:32.000Z</time>
      </trkpt>
      <trkpt lat="48.70303" lon="1.75311">
        <ele>180</ele>
        <time>2014-05-07T12:12:33.000Z</time>
      </trkpt>
      <trkpt lat="48.70304" lon="1.75311">
        <ele>180</ele>
        <time>2014-05-07T12:12:40.000Z</time>
      </trkpt>
      <trkpt lat="48.70306" lon="1.75312">
        <ele>180</ele>
        <time>2014-05-07T12:12:42.000Z</time>
      </trkpt>
      <trkpt lat="48.70306" lon="1.75317">
        <ele>180</ele>
        <time>2014-05-07T12:12:47.000Z</time>
      </trkpt>
      <trkpt lat="48.70308" lon="1.75317">
        <ele>180</ele>
        <time>2014-05-07T12:13:01.000Z</time>
      </trkpt>
      <trkpt lat="48.70308" lon="1.75313">
        <ele>180</ele>
        <time>2014-05-07T12:13:29.000Z</time>
      </trkpt>
      <trkpt lat="48.70298" lon="1.753">
        <ele>180</ele>
        <time>2014-05-07T12:13:33.000Z</time>
      </trkpt>
      <trkpt lat="48.70294" lon="1.75297">
        <ele>179.80000305176</ele>
        <time>2014-05-07T12:13:36.000Z</time>
      </trkpt>
      <trkpt lat="48.7029" lon="1.75293">
        <ele>179.80000305176</ele>
        <time>2014-05-07T12:13:40.000Z</time>
      </trkpt>
      <trkpt lat="48.70282" lon="1.75289">
        <ele>179.60000610352</ele>
        <time>2014-05-07T12:13:46.000Z</time>
      </trkpt>
      <trkpt lat="48.7027" lon="1.75284">
        <ele>179.39999389648</ele>
        <time>2014-05-07T12:13:53.000Z</time>
      </trkpt>
      <trkpt lat="48.70267" lon="1.75281">
        <ele>179.39999389648</ele>
        <time>2014-05-07T12:13:58.000Z</time>
      </trkpt>
      <trkpt lat="48.70258" lon="1.75277">
        <ele>179</ele>
        <time>2014-05-07T12:14:03.000Z</time>
      </trkpt>
      <trkpt lat="48.70248" lon="1.75269">
        <ele>178.60000610352</ele>
        <time>2014-05-07T12:14:07.000Z</time>
      </trkpt>
      <trkpt lat="48.70238" lon="1.75259">
        <ele>178.19999694824</ele>
        <time>2014-05-07T12:14:13.000Z</time>
      </trkpt>
      <trkpt lat="48.70238" lon="1.75259">
        <ele>178.19999694824</ele>
        <time>2014-05-07T12:14:14.000Z</time>
      </trkpt>
      <trkpt lat="48.70235" lon="1.75257">
        <ele>178.19999694824</ele>
        <time>2014-05-07T12:14:18.000Z</time>
      </trkpt>
      <trkpt lat="48.70233" lon="1.75254">
        <ele>178</ele>
        <time>2014-05-07T12:14:19.000Z</time>
      </trkpt>
      <trkpt lat="48.70228" lon="1.75249">
        <ele>177.80000305176</ele>
        <time>2014-05-07T12:14:24.000Z</time>
      </trkpt>
      <trkpt lat="48.70223" lon="1.75246">
        <ele>177.60000610352</ele>
        <time>2014-05-07T12:14:31.000Z</time>
      </trkpt>
      <trkpt lat="48.70219" lon="1.75246">
        <ele>177.39999389648</ele>
        <time>2014-05-07T12:14:37.000Z</time>
      </trkpt>
      <trkpt lat="48.7021" lon="1.75244">
        <ele>177</ele>
        <time>2014-05-07T12:14:43.000Z</time>
      </trkpt>
      <trkpt lat="48.70199" lon="1.75249">
        <ele>176.39999389648</ele>
        <time>2014-05-07T12:14:51.000Z</time>
      </trkpt>
      <trkpt lat="48.70185" lon="1.75252">
        <ele>176</ele>
        <time>2014-05-07T12:15:01.000Z</time>
      </trkpt>
      <trkpt lat="48.70174" lon="1.75264">
        <ele>175.80000305176</ele>
        <time>2014-05-07T12:15:11.000Z</time>
      </trkpt>
      <trkpt lat="48.70165" lon="1.75267">
        <ele>175.80000305176</ele>
        <time>2014-05-07T12:15:17.000Z</time>
      </trkpt>
      <trkpt lat="48.70164" lon="1.75267">
        <ele>175.80000305176</ele>
        <time>2014-05-07T12:15:18.000Z</time>
      </trkpt>
      <trkpt lat="48.70158" lon="1.75273">
        <ele>175.60000610352</ele>
        <time>2014-05-07T12:15:24.000Z</time>
      </trkpt>
      <trkpt lat="48.70152" lon="1.75279">
        <ele>175.60000610352</ele>
        <time>2014-05-07T12:15:29.000Z</time>
      </trkpt>
      <trkpt lat="48.70144" lon="1.75279">
        <ele>175.39999389648</ele>
        <time>2014-05-07T12:15:35.000Z</time>
      </trkpt>
      <trkpt lat="48.70132" lon="1.75276">
        <ele>175.19999694824</ele>
        <time>2014-05-07T12:15:40.000Z</time>
      </trkpt>
      <trkpt lat="48.70128" lon="1.7528">
        <ele>174.80000305176</ele>
        <time>2014-05-07T12:15:44.000Z</time>
      </trkpt>
      <trkpt lat="48.70127" lon="1.75281">
        <ele>174.80000305176</ele>
        <time>2014-05-07T12:15:45.000Z</time>
      </trkpt>
      <trkpt lat="48.7012" lon="1.75282">
        <ele>174.60000610352</ele>
        <time>2014-05-07T12:15:49.000Z</time>
      </trkpt>
      <trkpt lat="48.7011" lon="1.75288">
        <ele>174</ele>
        <time>2014-05-07T12:15:56.000Z</time>
      </trkpt>
      <trkpt lat="48.70108" lon="1.7529">
        <ele>174</ele>
        <time>2014-05-07T12:15:58.000Z</time>
      </trkpt>
      <trkpt lat="48.70102" lon="1.75298">
        <ele>173.60000610352</ele>
        <time>2014-05-07T12:16:03.000Z</time>
      </trkpt>
      <trkpt lat="48.70101" lon="1.75299">
        <ele>173.39999389648</ele>
        <time>2014-05-07T12:16:04.000Z</time>
      </trkpt>
      <trkpt lat="48.70097" lon="1.75317">
        <ele>173</ele>
        <time>2014-05-07T12:16:10.000Z</time>
      </trkpt>
      <trkpt lat="48.70094" lon="1.75317">
        <ele>173</ele>
        <time>2014-05-07T12:16:12.000Z</time>
      </trkpt>
      <trkpt lat="48.70085" lon="1.75326">
        <ele>172.39999389648</ele>
        <time>2014-05-07T12:16:20.000Z</time>
      </trkpt>
      <trkpt lat="48.70076" lon="1.7532">
        <ele>172.60000610352</ele>
        <time>2014-05-07T12:16:24.000Z</time>
      </trkpt>
      <trkpt lat="48.70066" lon="1.75321">
        <ele>172.60000610352</ele>
        <time>2014-05-07T12:16:30.000Z</time>
      </trkpt>
      <trkpt lat="48.70064" lon="1.75323">
        <ele>172.39999389648</ele>
        <time>2014-05-07T12:16:32.000Z</time>
      </trkpt>
      <trkpt lat="48.70054" lon="1.75324">
        <ele>172.19999694824</ele>
        <time>2014-05-07T12:16:39.000Z</time>
      </trkpt>
      <trkpt lat="48.70047" lon="1.7533">
        <ele>171.60000610352</ele>
        <time>2014-05-07T12:16:45.000Z</time>
      </trkpt>
      <trkpt lat="48.70038" lon="1.75331">
        <ele>171.60000610352</ele>
        <time>2014-05-07T12:16:51.000Z</time>
      </trkpt>
      <trkpt lat="48.70034" lon="1.75331">
        <ele>171.39999389648</ele>
        <time>2014-05-07T12:16:54.000Z</time>
      </trkpt>
      <trkpt lat="48.70025" lon="1.75336">
        <ele>171.19999694824</ele>
        <time>2014-05-07T12:17:00.000Z</time>
      </trkpt>
      <trkpt lat="48.7002" lon="1.7534">
        <ele>171</ele>
        <time>2014-05-07T12:17:04.000Z</time>
      </trkpt>
      <trkpt lat="48.70012" lon="1.7535">
        <ele>170.60000610352</ele>
        <time>2014-05-07T12:17:10.000Z</time>
      </trkpt>
      <trkpt lat="48.70003" lon="1.75355">
        <ele>170.60000610352</ele>
        <time>2014-05-07T12:17:17.000Z</time>
      </trkpt>
      <trkpt lat="48.69996" lon="1.75358">
        <ele>170.60000610352</ele>
        <time>2014-05-07T12:17:22.000Z</time>
      </trkpt>
      <trkpt lat="48.69989" lon="1.7536">
        <ele>170.39999389648</ele>
        <time>2014-05-07T12:17:26.000Z</time>
      </trkpt>
      <trkpt lat="48.69981" lon="1.75368">
        <ele>170.39999389648</ele>
        <time>2014-05-07T12:17:33.000Z</time>
      </trkpt>
      <trkpt lat="48.69969" lon="1.75368">
        <ele>170.80000305176</ele>
        <time>2014-05-07T12:17:40.000Z</time>
      </trkpt>
      <trkpt lat="48.69963" lon="1.75373">
        <ele>171.19999694824</ele>
        <time>2014-05-07T12:17:46.000Z</time>
      </trkpt>
      <trkpt lat="48.69954" lon="1.75383">
        <ele>171.39999389648</ele>
        <time>2014-05-07T12:17:53.000Z</time>
      </trkpt>
      <trkpt lat="48.69946" lon="1.7539">
        <ele>171.80000305176</ele>
        <time>2014-05-07T12:17:59.000Z</time>
      </trkpt>
      <trkpt lat="48.69935" lon="1.75398">
        <ele>172</ele>
        <time>2014-05-07T12:18:06.000Z</time>
      </trkpt>
      <trkpt lat="48.69922" lon="1.75396">
        <ele>171.80000305176</ele>
        <time>2014-05-07T12:18:13.000Z</time>
      </trkpt>
      <trkpt lat="48.6992" lon="1.75394">
        <ele>171.80000305176</ele>
        <time>2014-05-07T12:18:14.000Z</time>
      </trkpt>
      <trkpt lat="48.69912" lon="1.75391">
        <ele>171.80000305176</ele>
        <time>2014-05-07T12:18:18.000Z</time>
      </trkpt>
      <trkpt lat="48.69904" lon="1.75401">
        <ele>171.19999694824</ele>
        <time>2014-05-07T12:18:26.000Z</time>
      </trkpt>
      <trkpt lat="48.69895" lon="1.75403">
        <ele>171</ele>
        <time>2014-05-07T12:18:32.000Z</time>
      </trkpt>
      <trkpt lat="48.69887" lon="1.75397">
        <ele>171</ele>
        <time>2014-05-07T12:18:38.000Z</time>
      </trkpt>
      <trkpt lat="48.69882" lon="1.75398">
        <ele>170.80000305176</ele>
        <time>2014-05-07T12:18:41.000Z</time>
      </trkpt>
      <trkpt lat="48.6988" lon="1.75401">
        <ele>170.80000305176</ele>
        <time>2014-05-07T12:18:43.000Z</time>
      </trkpt>
      <trkpt lat="48.69874" lon="1.75406">
        <ele>170.39999389648</ele>
        <time>2014-05-07T12:18:49.000Z</time>
      </trkpt>
      <trkpt lat="48.69869" lon="1.75409">
        <ele>170.19999694824</ele>
        <time>2014-05-07T12:18:55.000Z</time>
      </trkpt>
      <trkpt lat="48.69864" lon="1.75411">
        <ele>170</ele>
        <time>2014-05-07T12:18:58.000Z</time>
      </trkpt>
      <trkpt lat="48.6985" lon="1.75416">
        <ele>169.39999389648</ele>
        <time>2014-05-07T12:19:06.000Z</time>
      </trkpt>
      <trkpt lat="48.69847" lon="1.75419">
        <ele>169.19999694824</ele>
        <time>2014-05-07T12:19:08.000Z</time>
      </trkpt>
      <trkpt lat="48.69841" lon="1.75424">
        <ele>168.80000305176</ele>
        <time>2014-05-07T12:19:13.000Z</time>
      </trkpt>
      <trkpt lat="48.69834" lon="1.75428">
        <ele>168.39999389648</ele>
        <time>2014-05-07T12:19:19.000Z</time>
      </trkpt>
      <trkpt lat="48.69826" lon="1.75436">
        <ele>167.80000305176</ele>
        <time>2014-05-07T12:19:25.000Z</time>
      </trkpt>
      <trkpt lat="48.69819" lon="1.75439">
        <ele>167.60000610352</ele>
        <time>2014-05-07T12:19:31.000Z</time>
      </trkpt>
      <trkpt lat="48.69811" lon="1.7544">
        <ele>167.19999694824</ele>
        <time>2014-05-07T12:19:38.000Z</time>
      </trkpt>
      <trkpt lat="48.69805" lon="1.75444">
        <ele>166.80000305176</ele>
        <time>2014-05-07T12:19:44.000Z</time>
      </trkpt>
      <trkpt lat="48.69797" lon="1.75448">
        <ele>166.19999694824</ele>
        <time>2014-05-07T12:19:49.000Z</time>
      </trkpt>
      <trkpt lat="48.69788" lon="1.75452">
        <ele>165.60000610352</ele>
        <time>2014-05-07T12:19:55.000Z</time>
      </trkpt>
      <trkpt lat="48.69777" lon="1.7546">
        <ele>164.60000610352</ele>
        <time>2014-05-07T12:20:04.000Z</time>
      </trkpt>
      <trkpt lat="48.6977" lon="1.75461">
        <ele>164.19999694824</ele>
        <time>2014-05-07T12:20:09.000Z</time>
      </trkpt>
      <trkpt lat="48.69759" lon="1.75467">
        <ele>163.39999389648</ele>
        <time>2014-05-07T12:20:16.000Z</time>
      </trkpt>
      <trkpt lat="48.69753" lon="1.75469">
        <ele>163</ele>
        <time>2014-05-07T12:20:20.000Z</time>
      </trkpt>
      <trkpt lat="48.6974" lon="1.75474">
        <ele>162.19999694824</ele>
        <time>2014-05-07T12:20:28.000Z</time>
      </trkpt>
      <trkpt lat="48.69729" lon="1.75482">
        <ele>161.19999694824</ele>
        <time>2014-05-07T12:20:36.000Z</time>
      </trkpt>
      <trkpt lat="48.69718" lon="1.75482">
        <ele>160.80000305176</ele>
        <time>2014-05-07T12:20:44.000Z</time>
      </trkpt>
      <trkpt lat="48.69707" lon="1.75486">
        <ele>160</ele>
        <time>2014-05-07T12:20:52.000Z</time>
      </trkpt>
      <trkpt lat="48.69696" lon="1.7549">
        <ele>159.39999389648</ele>
        <time>2014-05-07T12:21:01.000Z</time>
      </trkpt>
      <trkpt lat="48.69683" lon="1.75497">
        <ele>158.60000610352</ele>
        <time>2014-05-07T12:21:11.000Z</time>
      </trkpt>
      <trkpt lat="48.69671" lon="1.755">
        <ele>158.19999694824</ele>
        <time>2014-05-07T12:21:20.000Z</time>
      </trkpt>
      <trkpt lat="48.6966" lon="1.75503">
        <ele>157.60000610352</ele>
        <time>2014-05-07T12:21:28.000Z</time>
      </trkpt>
      <trkpt lat="48.69652" lon="1.75508">
        <ele>157.19999694824</ele>
        <time>2014-05-07T12:21:34.000Z</time>
      </trkpt>
      <trkpt lat="48.69639" lon="1.75514">
        <ele>156.60000610352</ele>
        <time>2014-05-07T12:21:44.000Z</time>
      </trkpt>
      <trkpt lat="48.69628" lon="1.75519">
        <ele>156.19999694824</ele>
        <time>2014-05-07T12:21:52.000Z</time>
      </trkpt>
      <trkpt lat="48.69617" lon="1.75523">
        <ele>156.19999694824</ele>
        <time>2014-05-07T12:22:00.000Z</time>
      </trkpt>
      <trkpt lat="48.69613" lon="1.75526">
        <ele>156.19999694824</ele>
        <time>2014-05-07T12:22:04.000Z</time>
      </trkpt>
      <trkpt lat="48.69609" lon="1.7553">
        <ele>156</ele>
        <time>2014-05-07T12:22:09.000Z</time>
      </trkpt>
      <trkpt lat="48.69597" lon="1.75535">
        <ele>155.80000305176</ele>
        <time>2014-05-07T12:22:18.000Z</time>
      </trkpt>
      <trkpt lat="48.69588" lon="1.75542">
        <ele>155.60000610352</ele>
        <time>2014-05-07T12:22:27.000Z</time>
      </trkpt>
      <trkpt lat="48.69581" lon="1.75545">
        <ele>155.39999389648</ele>
        <time>2014-05-07T12:22:33.000Z</time>
      </trkpt>
      <trkpt lat="48.69571" lon="1.75547">
        <ele>155.39999389648</ele>
        <time>2014-05-07T12:22:40.000Z</time>
      </trkpt>
      <trkpt lat="48.69566" lon="1.75539">
        <ele>155.19999694824</ele>
        <time>2014-05-07T12:22:45.000Z</time>
      </trkpt>
      <trkpt lat="48.69565" lon="1.75533">
        <ele>155</ele>
        <time>2014-05-07T12:22:48.000Z</time>
      </trkpt>
      <trkpt lat="48.69557" lon="1.75518">
        <ele>154.80000305176</ele>
        <time>2014-05-07T12:22:55.000Z</time>
      </trkpt>
      <trkpt lat="48.69555" lon="1.75515">
        <ele>154.80000305176</ele>
        <time>2014-05-07T12:22:56.000Z</time>
      </trkpt>
      <trkpt lat="48.6955" lon="1.75497">
        <ele>154.80000305176</ele>
        <time>2014-05-07T12:23:03.000Z</time>
      </trkpt>
      <trkpt lat="48.69545" lon="1.75485">
        <ele>154.60000610352</ele>
        <time>2014-05-07T12:23:08.000Z</time>
      </trkpt>
      <trkpt lat="48.69539" lon="1.7547">
        <ele>154.39999389648</ele>
        <time>2014-05-07T12:23:13.000Z</time>
      </trkpt>
      <trkpt lat="48.69536" lon="1.75452">
        <ele>154.39999389648</ele>
        <time>2014-05-07T12:23:18.000Z</time>
      </trkpt>
      <trkpt lat="48.69536" lon="1.75436">
        <ele>154.39999389648</ele>
        <time>2014-05-07T12:23:22.000Z</time>
      </trkpt>
      <trkpt lat="48.69526" lon="1.75404">
        <ele>154.19999694824</ele>
        <time>2014-05-07T12:23:28.000Z</time>
      </trkpt>
      <trkpt lat="48.69518" lon="1.75377">
        <ele>155</ele>
        <time>2014-05-07T12:23:33.000Z</time>
      </trkpt>
      <trkpt lat="48.69514" lon="1.75367">
        <ele>155.19999694824</ele>
        <time>2014-05-07T12:23:35.000Z</time>
      </trkpt>
      <trkpt lat="48.695" lon="1.7533">
        <ele>156.19999694824</ele>
        <time>2014-05-07T12:23:42.000Z</time>
      </trkpt>
      <trkpt lat="48.69494" lon="1.75304">
        <ele>157.39999389648</ele>
        <time>2014-05-07T12:23:47.000Z</time>
      </trkpt>
      <trkpt lat="48.69489" lon="1.75282">
        <ele>158.60000610352</ele>
        <time>2014-05-07T12:23:52.000Z</time>
      </trkpt>
      <trkpt lat="48.69484" lon="1.75257">
        <ele>159.60000610352</ele>
        <time>2014-05-07T12:23:57.000Z</time>
      </trkpt>
      <trkpt lat="48.69475" lon="1.75229">
        <ele>161</ele>
        <time>2014-05-07T12:24:02.000Z</time>
      </trkpt>
      <trkpt lat="48.6947" lon="1.75201">
        <ele>162.60000610352</ele>
        <time>2014-05-07T12:24:08.000Z</time>
      </trkpt>
      <trkpt lat="48.69463" lon="1.7516">
        <ele>164.39999389648</ele>
        <time>2014-05-07T12:24:16.000Z</time>
      </trkpt>
      <trkpt lat="48.69457" lon="1.75133">
        <ele>165.60000610352</ele>
        <time>2014-05-07T12:24:21.000Z</time>
      </trkpt>
      <trkpt lat="48.69448" lon="1.75094">
        <ele>167</ele>
        <time>2014-05-07T12:24:28.000Z</time>
      </trkpt>
      <trkpt lat="48.69442" lon="1.7507">
        <ele>167.80000305176</ele>
        <time>2014-05-07T12:24:33.000Z</time>
      </trkpt>
      <trkpt lat="48.69436" lon="1.75047">
        <ele>168</ele>
        <time>2014-05-07T12:24:39.000Z</time>
      </trkpt>
      <trkpt lat="48.69432" lon="1.75028">
        <ele>167.80000305176</ele>
        <time>2014-05-07T12:24:46.000Z</time>
      </trkpt>
      <trkpt lat="48.6943" lon="1.75016">
        <ele>167.80000305176</ele>
        <time>2014-05-07T12:24:52.000Z</time>
      </trkpt>
      <trkpt lat="48.69429" lon="1.75007">
        <ele>167.80000305176</ele>
        <time>2014-05-07T12:24:57.000Z</time>
      </trkpt>
      <trkpt lat="48.69425" lon="1.74993">
        <ele>167.60000610352</ele>
        <time>2014-05-07T12:25:03.000Z</time>
      </trkpt>
      <trkpt lat="48.69425" lon="1.74991">
        <ele>167.60000610352</ele>
        <time>2014-05-07T12:25:04.000Z</time>
      </trkpt>
      <trkpt lat="48.69422" lon="1.74988">
        <ele>167.39999389648</ele>
        <time>2014-05-07T12:25:10.000Z</time>
      </trkpt>
      <trkpt lat="48.6942" lon="1.74977">
        <ele>166.80000305176</ele>
        <time>2014-05-07T12:25:15.000Z</time>
      </trkpt>
      <trkpt lat="48.69417" lon="1.74966">
        <ele>166.19999694824</ele>
        <time>2014-05-07T12:25:20.000Z</time>
      </trkpt>
      <trkpt lat="48.69413" lon="1.74951">
        <ele>165.60000610352</ele>
        <time>2014-05-07T12:25:26.000Z</time>
      </trkpt>
      <trkpt lat="48.69409" lon="1.74939">
        <ele>165</ele>
        <time>2014-05-07T12:25:32.000Z</time>
      </trkpt>
      <trkpt lat="48.69409" lon="1.74937">
        <ele>164.80000305176</ele>
        <time>2014-05-07T12:25:33.000Z</time>
      </trkpt>
      <trkpt lat="48.69407" lon="1.7493">
        <ele>164.39999389648</ele>
        <time>2014-05-07T12:25:37.000Z</time>
      </trkpt>
      <trkpt lat="48.69405" lon="1.74926">
        <ele>164.19999694824</ele>
        <time>2014-05-07T12:25:40.000Z</time>
      </trkpt>
      <trkpt lat="48.69402" lon="1.74916">
        <ele>163.80000305176</ele>
        <time>2014-05-07T12:25:46.000Z</time>
      </trkpt>
      <trkpt lat="48.69399" lon="1.74911">
        <ele>163.39999389648</ele>
        <time>2014-05-07T12:25:50.000Z</time>
      </trkpt>
      <trkpt lat="48.69398" lon="1.74897">
        <ele>163.19999694824</ele>
        <time>2014-05-07T12:25:56.000Z</time>
      </trkpt>
      <trkpt lat="48.69397" lon="1.7489">
        <ele>163.19999694824</ele>
        <time>2014-05-07T12:25:59.000Z</time>
      </trkpt>
      <trkpt lat="48.69397" lon="1.74877">
        <ele>163.39999389648</ele>
        <time>2014-05-07T12:26:05.000Z</time>
      </trkpt>
      <trkpt lat="48.69395" lon="1.74873">
        <ele>163.39999389648</ele>
        <time>2014-05-07T12:26:07.000Z</time>
      </trkpt>
      <trkpt lat="48.69391" lon="1.74866">
        <ele>163.19999694824</ele>
        <time>2014-05-07T12:26:10.000Z</time>
      </trkpt>
      <trkpt lat="48.69389" lon="1.74857">
        <ele>163.19999694824</ele>
        <time>2014-05-07T12:26:13.000Z</time>
      </trkpt>
      <trkpt lat="48.69384" lon="1.74849">
        <ele>163</ele>
        <time>2014-05-07T12:26:19.000Z</time>
      </trkpt>
      <trkpt lat="48.69383" lon="1.74842">
        <ele>162.80000305176</ele>
        <time>2014-05-07T12:26:22.000Z</time>
      </trkpt>
      <trkpt lat="48.69377" lon="1.74832">
        <ele>162.39999389648</ele>
        <time>2014-05-07T12:26:29.000Z</time>
      </trkpt>
      <trkpt lat="48.69374" lon="1.7482">
        <ele>162</ele>
        <time>2014-05-07T12:26:34.000Z</time>
      </trkpt>
      <trkpt lat="48.69373" lon="1.74816">
        <ele>162.19999694824</ele>
        <time>2014-05-07T12:26:36.000Z</time>
      </trkpt>
      <trkpt lat="48.69374" lon="1.74805">
        <ele>163</ele>
        <time>2014-05-07T12:26:41.000Z</time>
      </trkpt>
      <trkpt lat="48.6937" lon="1.74791">
        <ele>163.80000305176</ele>
        <time>2014-05-07T12:26:49.000Z</time>
      </trkpt>
      <trkpt lat="48.69368" lon="1.74787">
        <ele>164</ele>
        <time>2014-05-07T12:26:51.000Z</time>
      </trkpt>
      <trkpt lat="48.69368" lon="1.74783">
        <ele>164.19999694824</ele>
        <time>2014-05-07T12:26:56.000Z</time>
      </trkpt>
      <trkpt lat="48.69366" lon="1.74777">
        <ele>164.60000610352</ele>
        <time>2014-05-07T12:27:03.000Z</time>
      </trkpt>
      <trkpt lat="48.69364" lon="1.74756">
        <ele>165.80000305176</ele>
        <time>2014-05-07T12:27:08.000Z</time>
      </trkpt>
      <trkpt lat="48.69359" lon="1.7474">
        <ele>166.80000305176</ele>
        <time>2014-05-07T12:27:15.000Z</time>
      </trkpt>
      <trkpt lat="48.69358" lon="1.74733">
        <ele>166.80000305176</ele>
        <time>2014-05-07T12:27:18.000Z</time>
      </trkpt>
      <trkpt lat="48.69356" lon="1.74726">
        <ele>167</ele>
        <time>2014-05-07T12:27:21.000Z</time>
      </trkpt>
      <trkpt lat="48.69355" lon="1.74722">
        <ele>167</ele>
        <time>2014-05-07T12:27:23.000Z</time>
      </trkpt>
      <trkpt lat="48.6935" lon="1.74709">
        <ele>167</ele>
        <time>2014-05-07T12:27:29.000Z</time>
      </trkpt>
      <trkpt lat="48.6935" lon="1.74707">
        <ele>167</ele>
        <time>2014-05-07T12:27:30.000Z</time>
      </trkpt>
      <trkpt lat="48.69344" lon="1.74692">
        <ele>167.19999694824</ele>
        <time>2014-05-07T12:27:38.000Z</time>
      </trkpt>
      <trkpt lat="48.6934" lon="1.74679">
        <ele>167.19999694824</ele>
        <time>2014-05-07T12:27:45.000Z</time>
      </trkpt>
      <trkpt lat="48.6934" lon="1.74678">
        <ele>167.19999694824</ele>
        <time>2014-05-07T12:27:46.000Z</time>
      </trkpt>
      <trkpt lat="48.69337" lon="1.74662">
        <ele>167.19999694824</ele>
        <time>2014-05-07T12:27:54.000Z</time>
      </trkpt>
      <trkpt lat="48.69333" lon="1.74649">
        <ele>167.39999389648</ele>
        <time>2014-05-07T12:27:59.000Z</time>
      </trkpt>
      <trkpt lat="48.69327" lon="1.74626">
        <ele>167.60000610352</ele>
        <time>2014-05-07T12:28:08.000Z</time>
      </trkpt>
      <trkpt lat="48.69325" lon="1.74616">
        <ele>167.80000305176</ele>
        <time>2014-05-07T12:28:12.000Z</time>
      </trkpt>
      <trkpt lat="48.69322" lon="1.74604">
        <ele>168</ele>
        <time>2014-05-07T12:28:18.000Z</time>
      </trkpt>
      <trkpt lat="48.69318" lon="1.74592">
        <ele>168.19999694824</ele>
        <time>2014-05-07T12:28:24.000Z</time>
      </trkpt>
      <trkpt lat="48.69313" lon="1.74581">
        <ele>168.39999389648</ele>
        <time>2014-05-07T12:28:30.000Z</time>
      </trkpt>
      <trkpt lat="48.69306" lon="1.74571">
        <ele>168.60000610352</ele>
        <time>2014-05-07T12:28:37.000Z</time>
      </trkpt>
      <trkpt lat="48.693" lon="1.74564">
        <ele>168.60000610352</ele>
        <time>2014-05-07T12:28:43.000Z</time>
      </trkpt>
      <trkpt lat="48.69293" lon="1.74558">
        <ele>168.80000305176</ele>
        <time>2014-05-07T12:28:49.000Z</time>
      </trkpt>
      <trkpt lat="48.69282" lon="1.74547">
        <ele>168.80000305176</ele>
        <time>2014-05-07T12:28:58.000Z</time>
      </trkpt>
      <trkpt lat="48.69271" lon="1.74536">
        <ele>169</ele>
        <time>2014-05-07T12:29:07.000Z</time>
      </trkpt>
      <trkpt lat="48.69262" lon="1.74528">
        <ele>168.80000305176</ele>
        <time>2014-05-07T12:29:14.000Z</time>
      </trkpt>
      <trkpt lat="48.69253" lon="1.74516">
        <ele>168.39999389648</ele>
        <time>2014-05-07T12:29:22.000Z</time>
      </trkpt>
      <trkpt lat="48.69245" lon="1.74509">
        <ele>168.19999694824</ele>
        <time>2014-05-07T12:29:28.000Z</time>
      </trkpt>
      <trkpt lat="48.69238" lon="1.745">
        <ele>167.80000305176</ele>
        <time>2014-05-07T12:29:34.000Z</time>
      </trkpt>
      <trkpt lat="48.69227" lon="1.74489">
        <ele>167.39999389648</ele>
        <time>2014-05-07T12:29:43.000Z</time>
      </trkpt>
      <trkpt lat="48.69216" lon="1.74477">
        <ele>166.60000610352</ele>
        <time>2014-05-07T12:29:52.000Z</time>
      </trkpt>
      <trkpt lat="48.69207" lon="1.74469">
        <ele>166</ele>
        <time>2014-05-07T12:29:59.000Z</time>
      </trkpt>
      <trkpt lat="48.69195" lon="1.74456">
        <ele>165.19999694824</ele>
        <time>2014-05-07T12:30:09.000Z</time>
      </trkpt>
      <trkpt lat="48.69187" lon="1.74447">
        <ele>164.60000610352</ele>
        <time>2014-05-07T12:30:16.000Z</time>
      </trkpt>
      <trkpt lat="48.69178" lon="1.74438">
        <ele>164</ele>
        <time>2014-05-07T12:30:24.000Z</time>
      </trkpt>
      <trkpt lat="48.69168" lon="1.74426">
        <ele>163.39999389648</ele>
        <time>2014-05-07T12:30:32.000Z</time>
      </trkpt>
      <trkpt lat="48.69163" lon="1.74419">
        <ele>163</ele>
        <time>2014-05-07T12:30:38.000Z</time>
      </trkpt>
      <trkpt lat="48.69155" lon="1.74415">
        <ele>162.60000610352</ele>
        <time>2014-05-07T12:30:43.000Z</time>
      </trkpt>
      <trkpt lat="48.6915" lon="1.7441">
        <ele>162.39999389648</ele>
        <time>2014-05-07T12:30:49.000Z</time>
      </trkpt>
      <trkpt lat="48.69145" lon="1.74404">
        <ele>162</ele>
        <time>2014-05-07T12:30:53.000Z</time>
      </trkpt>
      <trkpt lat="48.6914" lon="1.74401">
        <ele>161.80000305176</ele>
        <time>2014-05-07T12:30:56.000Z</time>
      </trkpt>
      <trkpt lat="48.6913" lon="1.74406">
        <ele>161.80000305176</ele>
        <time>2014-05-07T12:31:04.000Z</time>
      </trkpt>
      <trkpt lat="48.69125" lon="1.74414">
        <ele>161.80000305176</ele>
        <time>2014-05-07T12:31:09.000Z</time>
      </trkpt>
      <trkpt lat="48.6912" lon="1.74426">
        <ele>162.19999694824</ele>
        <time>2014-05-07T12:31:15.000Z</time>
      </trkpt>
      <trkpt lat="48.69114" lon="1.74439">
        <ele>162.19999694824</ele>
        <time>2014-05-07T12:31:21.000Z</time>
      </trkpt>
      <trkpt lat="48.69106" lon="1.74452">
        <ele>162.19999694824</ele>
        <time>2014-05-07T12:31:28.000Z</time>
      </trkpt>
      <trkpt lat="48.69099" lon="1.74464">
        <ele>162.39999389648</ele>
        <time>2014-05-07T12:31:34.000Z</time>
      </trkpt>
      <trkpt lat="48.69091" lon="1.74479">
        <ele>162.60000610352</ele>
        <time>2014-05-07T12:31:42.000Z</time>
      </trkpt>
      <trkpt lat="48.69086" lon="1.74491">
        <ele>162.39999389648</ele>
        <time>2014-05-07T12:31:50.000Z</time>
      </trkpt>
      <trkpt lat="48.69081" lon="1.74497">
        <ele>162.19999694824</ele>
        <time>2014-05-07T12:31:55.000Z</time>
      </trkpt>
      <trkpt lat="48.69075" lon="1.74509">
        <ele>162</ele>
        <time>2014-05-07T12:32:04.000Z</time>
      </trkpt>
      <trkpt lat="48.69073" lon="1.74518">
        <ele>162</ele>
        <time>2014-05-07T12:32:10.000Z</time>
      </trkpt>
      <trkpt lat="48.69067" lon="1.74527">
        <ele>161.80000305176</ele>
        <time>2014-05-07T12:32:16.000Z</time>
      </trkpt>
      <trkpt lat="48.6906" lon="1.74543">
        <ele>161.39999389648</ele>
        <time>2014-05-07T12:32:25.000Z</time>
      </trkpt>
      <trkpt lat="48.69055" lon="1.74553">
        <ele>161.19999694824</ele>
        <time>2014-05-07T12:32:31.000Z</time>
      </trkpt>
      <trkpt lat="48.69049" lon="1.74563">
        <ele>161</ele>
        <time>2014-05-07T12:32:37.000Z</time>
      </trkpt>
      <trkpt lat="48.69048" lon="1.74565">
        <ele>161</ele>
        <time>2014-05-07T12:32:39.000Z</time>
      </trkpt>
      <trkpt lat="48.6904" lon="1.7458">
        <ele>160.80000305176</ele>
        <time>2014-05-07T12:32:48.000Z</time>
      </trkpt>
      <trkpt lat="48.69035" lon="1.74591">
        <ele>160.39999389648</ele>
        <time>2014-05-07T12:32:54.000Z</time>
      </trkpt>
      <trkpt lat="48.69027" lon="1.74603">
        <ele>160</ele>
        <time>2014-05-07T12:33:03.000Z</time>
      </trkpt>
      <trkpt lat="48.69026" lon="1.74605">
        <ele>159.80000305176</ele>
        <time>2014-05-07T12:33:04.000Z</time>
      </trkpt>
      <trkpt lat="48.6902" lon="1.74621">
        <ele>159.39999389648</ele>
        <time>2014-05-07T12:33:12.000Z</time>
      </trkpt>
      <trkpt lat="48.69013" lon="1.74636">
        <ele>159</ele>
        <time>2014-05-07T12:33:21.000Z</time>
      </trkpt>
      <trkpt lat="48.69003" lon="1.74654">
        <ele>159.39999389648</ele>
        <time>2014-05-07T12:33:32.000Z</time>
      </trkpt>
      <trkpt lat="48.68994" lon="1.7467">
        <ele>159.39999389648</ele>
        <time>2014-05-07T12:33:41.000Z</time>
      </trkpt>
      <trkpt lat="48.68987" lon="1.74689">
        <ele>159.39999389648</ele>
        <time>2014-05-07T12:33:50.000Z</time>
      </trkpt>
      <trkpt lat="48.68982" lon="1.74698">
        <ele>159.39999389648</ele>
        <time>2014-05-07T12:33:55.000Z</time>
      </trkpt>
      <trkpt lat="48.68976" lon="1.74711">
        <ele>159.80000305176</ele>
        <time>2014-05-07T12:34:02.000Z</time>
      </trkpt>
      <trkpt lat="48.68967" lon="1.74725">
        <ele>160.39999389648</ele>
        <time>2014-05-07T12:34:12.000Z</time>
      </trkpt>
      <trkpt lat="48.68962" lon="1.74737">
        <ele>160.80000305176</ele>
        <time>2014-05-07T12:34:19.000Z</time>
      </trkpt>
      <trkpt lat="48.68957" lon="1.74748">
        <ele>160.80000305176</ele>
        <time>2014-05-07T12:34:25.000Z</time>
      </trkpt>
      <trkpt lat="48.68956" lon="1.7475">
        <ele>161</ele>
        <time>2014-05-07T12:34:26.000Z</time>
      </trkpt>
      <trkpt lat="48.68952" lon="1.74757">
        <ele>161</ele>
        <time>2014-05-07T12:34:30.000Z</time>
      </trkpt>
      <trkpt lat="48.6895" lon="1.74762">
        <ele>160.80000305176</ele>
        <time>2014-05-07T12:34:33.000Z</time>
      </trkpt>
      <trkpt lat="48.68944" lon="1.74774">
        <ele>160.60000610352</ele>
        <time>2014-05-07T12:34:40.000Z</time>
      </trkpt>
      <trkpt lat="48.68944" lon="1.74776">
        <ele>160.39999389648</ele>
        <time>2014-05-07T12:34:41.000Z</time>
      </trkpt>
      <trkpt lat="48.68937" lon="1.7479">
        <ele>160</ele>
        <time>2014-05-07T12:34:49.000Z</time>
      </trkpt>
      <trkpt lat="48.68933" lon="1.74799">
        <ele>159.60000610352</ele>
        <time>2014-05-07T12:34:54.000Z</time>
      </trkpt>
      <trkpt lat="48.68927" lon="1.74811">
        <ele>158.60000610352</ele>
        <time>2014-05-07T12:35:01.000Z</time>
      </trkpt>
      <trkpt lat="48.68922" lon="1.7482">
        <ele>158.39999389648</ele>
        <time>2014-05-07T12:35:07.000Z</time>
      </trkpt>
      <trkpt lat="48.68918" lon="1.74826">
        <ele>158.19999694824</ele>
        <time>2014-05-07T12:35:11.000Z</time>
      </trkpt>
      <trkpt lat="48.68917" lon="1.74834">
        <ele>158</ele>
        <time>2014-05-07T12:35:15.000Z</time>
      </trkpt>
      <trkpt lat="48.6891" lon="1.74841">
        <ele>157.60000610352</ele>
        <time>2014-05-07T12:35:21.000Z</time>
      </trkpt>
      <trkpt lat="48.68902" lon="1.7486">
        <ele>156.80000305176</ele>
        <time>2014-05-07T12:35:31.000Z</time>
      </trkpt>
      <trkpt lat="48.68901" lon="1.74862">
        <ele>156.80000305176</ele>
        <time>2014-05-07T12:35:32.000Z</time>
      </trkpt>
      <trkpt lat="48.68895" lon="1.74875">
        <ele>156.60000610352</ele>
        <time>2014-05-07T12:35:38.000Z</time>
      </trkpt>
      <trkpt lat="48.68888" lon="1.74884">
        <ele>156.39999389648</ele>
        <time>2014-05-07T12:35:44.000Z</time>
      </trkpt>
      <trkpt lat="48.6888" lon="1.74885">
        <ele>156.39999389648</ele>
        <time>2014-05-07T12:35:50.000Z</time>
      </trkpt>
      <trkpt lat="48.68878" lon="1.7488">
        <ele>156.19999694824</ele>
        <time>2014-05-07T12:35:53.000Z</time>
      </trkpt>
      <trkpt lat="48.68875" lon="1.74868">
        <ele>156.19999694824</ele>
        <time>2014-05-07T12:35:59.000Z</time>
      </trkpt>
      <trkpt lat="48.68874" lon="1.74862">
        <ele>156.19999694824</ele>
        <time>2014-05-07T12:36:02.000Z</time>
      </trkpt>
      <trkpt lat="48.68871" lon="1.74844">
        <ele>156.19999694824</ele>
        <time>2014-05-07T12:36:10.000Z</time>
      </trkpt>
      <trkpt lat="48.68871" lon="1.74839">
        <ele>156.19999694824</ele>
        <time>2014-05-07T12:36:13.000Z</time>
      </trkpt>
      <trkpt lat="48.68869" lon="1.7483">
        <ele>156.39999389648</ele>
        <time>2014-05-07T12:36:17.000Z</time>
      </trkpt>
      <trkpt lat="48.68869" lon="1.74817">
        <ele>156.60000610352</ele>
        <time>2014-05-07T12:36:23.000Z</time>
      </trkpt>
      <trkpt lat="48.68866" lon="1.74803">
        <ele>156.39999389648</ele>
        <time>2014-05-07T12:36:30.000Z</time>
      </trkpt>
      <trkpt lat="48.68865" lon="1.74798">
        <ele>156.39999389648</ele>
        <time>2014-05-07T12:36:32.000Z</time>
      </trkpt>
      <trkpt lat="48.68864" lon="1.74791">
        <ele>156.39999389648</ele>
        <time>2014-05-07T12:36:36.000Z</time>
      </trkpt>
      <trkpt lat="48.68863" lon="1.74782">
        <ele>156.39999389648</ele>
        <time>2014-05-07T12:36:41.000Z</time>
      </trkpt>
      <trkpt lat="48.68859" lon="1.74762">
        <ele>156.19999694824</ele>
        <time>2014-05-07T12:36:49.000Z</time>
      </trkpt>
      <trkpt lat="48.68857" lon="1.74749">
        <ele>156.19999694824</ele>
        <time>2014-05-07T12:36:55.000Z</time>
      </trkpt>
      <trkpt lat="48.68853" lon="1.74731">
        <ele>156</ele>
        <time>2014-05-07T12:37:03.000Z</time>
      </trkpt>
      <trkpt lat="48.68851" lon="1.74719">
        <ele>156.60000610352</ele>
        <time>2014-05-07T12:37:09.000Z</time>
      </trkpt>
      <trkpt lat="48.68848" lon="1.74698">
        <ele>157</ele>
        <time>2014-05-07T12:37:19.000Z</time>
      </trkpt>
      <trkpt lat="48.68847" lon="1.74692">
        <ele>157.19999694824</ele>
        <time>2014-05-07T12:37:22.000Z</time>
      </trkpt>
      <trkpt lat="48.68845" lon="1.74672">
        <ele>157.80000305176</ele>
        <time>2014-05-07T12:37:31.000Z</time>
      </trkpt>
      <trkpt lat="48.68844" lon="1.74656">
        <ele>158</ele>
        <time>2014-05-07T12:37:38.000Z</time>
      </trkpt>
      <trkpt lat="48.68844" lon="1.74648">
        <ele>158</ele>
        <time>2014-05-07T12:37:42.000Z</time>
      </trkpt>
      <trkpt lat="48.68842" lon="1.74638">
        <ele>158.19999694824</ele>
        <time>2014-05-07T12:37:47.000Z</time>
      </trkpt>
      <trkpt lat="48.6884" lon="1.74623">
        <ele>158.39999389648</ele>
        <time>2014-05-07T12:37:54.000Z</time>
      </trkpt>
      <trkpt lat="48.68839" lon="1.7461">
        <ele>158.19999694824</ele>
        <time>2014-05-07T12:38:00.000Z</time>
      </trkpt>
      <trkpt lat="48.68838" lon="1.74591">
        <ele>158.19999694824</ele>
        <time>2014-05-07T12:38:09.000Z</time>
      </trkpt>
      <trkpt lat="48.68838" lon="1.74572">
        <ele>158</ele>
        <time>2014-05-07T12:38:16.000Z</time>
      </trkpt>
      <trkpt lat="48.68835" lon="1.74549">
        <ele>158.80000305176</ele>
        <time>2014-05-07T12:38:25.000Z</time>
      </trkpt>
      <trkpt lat="48.68835" lon="1.74529">
        <ele>158.80000305176</ele>
        <time>2014-05-07T12:38:34.000Z</time>
      </trkpt>
      <trkpt lat="48.68835" lon="1.74513">
        <ele>158.80000305176</ele>
        <time>2014-05-07T12:38:41.000Z</time>
      </trkpt>
      <trkpt lat="48.68834" lon="1.74501">
        <ele>159</ele>
        <time>2014-05-07T12:38:46.000Z</time>
      </trkpt>
      <trkpt lat="48.68834" lon="1.74491">
        <ele>159</ele>
        <time>2014-05-07T12:38:51.000Z</time>
      </trkpt>
      <trkpt lat="48.68834" lon="1.74481">
        <ele>159</ele>
        <time>2014-05-07T12:38:56.000Z</time>
      </trkpt>
      <trkpt lat="48.68835" lon="1.74471">
        <ele>159</ele>
        <time>2014-05-07T12:39:03.000Z</time>
      </trkpt>
      <trkpt lat="48.68834" lon="1.74463">
        <ele>159.39999389648</ele>
        <time>2014-05-07T12:39:07.000Z</time>
      </trkpt>
      <trkpt lat="48.68835" lon="1.7446">
        <ele>159.19999694824</ele>
        <time>2014-05-07T12:39:09.000Z</time>
      </trkpt>
      <trkpt lat="48.68837" lon="1.74455">
        <ele>159.19999694824</ele>
        <time>2014-05-07T12:39:12.000Z</time>
      </trkpt>
      <trkpt lat="48.68837" lon="1.74452">
        <ele>159.19999694824</ele>
        <time>2014-05-07T12:39:14.000Z</time>
      </trkpt>
      <trkpt lat="48.68835" lon="1.74443">
        <ele>159.80000305176</ele>
        <time>2014-05-07T12:39:19.000Z</time>
      </trkpt>
      <trkpt lat="48.68833" lon="1.74436">
        <ele>160.19999694824</ele>
        <time>2014-05-07T12:39:23.000Z</time>
      </trkpt>
      <trkpt lat="48.68835" lon="1.74423">
        <ele>160</ele>
        <time>2014-05-07T12:39:30.000Z</time>
      </trkpt>
      <trkpt lat="48.68835" lon="1.74406">
        <ele>160.60000610352</ele>
        <time>2014-05-07T12:39:38.000Z</time>
      </trkpt>
      <trkpt lat="48.68834" lon="1.74387">
        <ele>160.19999694824</ele>
        <time>2014-05-07T12:39:46.000Z</time>
      </trkpt>
      <trkpt lat="48.68833" lon="1.74372">
        <ele>159.80000305176</ele>
        <time>2014-05-07T12:39:53.000Z</time>
      </trkpt>
      <trkpt lat="48.68833" lon="1.74363">
        <ele>159.39999389648</ele>
        <time>2014-05-07T12:39:58.000Z</time>
      </trkpt>
      <trkpt lat="48.68832" lon="1.74349">
        <ele>159</ele>
        <time>2014-05-07T12:40:05.000Z</time>
      </trkpt>
      <trkpt lat="48.6883" lon="1.74327">
        <ele>158.60000610352</ele>
        <time>2014-05-07T12:40:15.000Z</time>
      </trkpt>
      <trkpt lat="48.68829" lon="1.74316">
        <ele>158</ele>
        <time>2014-05-07T12:40:20.000Z</time>
      </trkpt>
      <trkpt lat="48.68828" lon="1.7431">
        <ele>157.39999389648</ele>
        <time>2014-05-07T12:40:23.000Z</time>
      </trkpt>
      <trkpt lat="48.68827" lon="1.74301">
        <ele>156.39999389648</ele>
        <time>2014-05-07T12:40:27.000Z</time>
      </trkpt>
      <trkpt lat="48.68827" lon="1.74287">
        <ele>155.60000610352</ele>
        <time>2014-05-07T12:40:34.000Z</time>
      </trkpt>
      <trkpt lat="48.68826" lon="1.74275">
        <ele>155.39999389648</ele>
        <time>2014-05-07T12:40:39.000Z</time>
      </trkpt>
      <trkpt lat="48.68822" lon="1.7426">
        <ele>155.39999389648</ele>
        <time>2014-05-07T12:40:46.000Z</time>
      </trkpt>
      <trkpt lat="48.68817" lon="1.74249">
        <ele>155.39999389648</ele>
        <time>2014-05-07T12:40:53.000Z</time>
      </trkpt>
      <trkpt lat="48.68813" lon="1.74244">
        <ele>155.60000610352</ele>
        <time>2014-05-07T12:40:57.000Z</time>
      </trkpt>
      <trkpt lat="48.68803" lon="1.74238">
        <ele>155.80000305176</ele>
        <time>2014-05-07T12:41:05.000Z</time>
      </trkpt>
      <trkpt lat="48.68793" lon="1.74233">
        <ele>156</ele>
        <time>2014-05-07T12:41:13.000Z</time>
      </trkpt>
      <trkpt lat="48.68786" lon="1.7423">
        <ele>156.19999694824</ele>
        <time>2014-05-07T12:41:18.000Z</time>
      </trkpt>
      <trkpt lat="48.68777" lon="1.74229">
        <ele>156.39999389648</ele>
        <time>2014-05-07T12:41:25.000Z</time>
      </trkpt>
      <trkpt lat="48.68772" lon="1.74229">
        <ele>156.60000610352</ele>
        <time>2014-05-07T12:41:29.000Z</time>
      </trkpt>
      <trkpt lat="48.68766" lon="1.7423">
        <ele>157</ele>
        <time>2014-05-07T12:41:33.000Z</time>
      </trkpt>
      <trkpt lat="48.68752" lon="1.74234">
        <ele>157</ele>
        <time>2014-05-07T12:41:42.000Z</time>
      </trkpt>
      <trkpt lat="48.68751" lon="1.74235">
        <ele>157</ele>
        <time>2014-05-07T12:41:43.000Z</time>
      </trkpt>
      <trkpt lat="48.6874" lon="1.74236">
        <ele>157</ele>
        <time>2014-05-07T12:41:51.000Z</time>
      </trkpt>
      <trkpt lat="48.6873" lon="1.74238">
        <ele>157</ele>
        <time>2014-05-07T12:41:58.000Z</time>
      </trkpt>
      <trkpt lat="48.68723" lon="1.7424">
        <ele>157.39999389648</ele>
        <time>2014-05-07T12:42:03.000Z</time>
      </trkpt>
      <trkpt lat="48.68712" lon="1.7424">
        <ele>157.39999389648</ele>
        <time>2014-05-07T12:42:12.000Z</time>
      </trkpt>
      <trkpt lat="48.68702" lon="1.74242">
        <ele>157.60000610352</ele>
        <time>2014-05-07T12:42:18.000Z</time>
      </trkpt>
      <trkpt lat="48.68698" lon="1.74243">
        <ele>157.80000305176</ele>
        <time>2014-05-07T12:42:21.000Z</time>
      </trkpt>
      <trkpt lat="48.68689" lon="1.74243">
        <ele>157.39999389648</ele>
        <time>2014-05-07T12:42:27.000Z</time>
      </trkpt>
      <trkpt lat="48.68688" lon="1.74243">
        <ele>157.19999694824</ele>
        <time>2014-05-07T12:42:28.000Z</time>
      </trkpt>
      <trkpt lat="48.68676" lon="1.74244">
        <ele>157.19999694824</ele>
        <time>2014-05-07T12:42:36.000Z</time>
      </trkpt>
      <trkpt lat="48.68667" lon="1.74246">
        <ele>157.39999389648</ele>
        <time>2014-05-07T12:42:43.000Z</time>
      </trkpt>
      <trkpt lat="48.6866" lon="1.74249">
        <ele>157.60000610352</ele>
        <time>2014-05-07T12:42:48.000Z</time>
      </trkpt>
      <trkpt lat="48.68658" lon="1.74249">
        <ele>157.60000610352</ele>
        <time>2014-05-07T12:42:49.000Z</time>
      </trkpt>
      <trkpt lat="48.68648" lon="1.74253">
        <ele>157.80000305176</ele>
        <time>2014-05-07T12:42:57.000Z</time>
      </trkpt>
      <trkpt lat="48.68638" lon="1.74259">
        <ele>158</ele>
        <time>2014-05-07T12:43:04.000Z</time>
      </trkpt>
      <trkpt lat="48.68628" lon="1.74263">
        <ele>158.19999694824</ele>
        <time>2014-05-07T12:43:10.000Z</time>
      </trkpt>
      <trkpt lat="48.68619" lon="1.74272">
        <ele>157.60000610352</ele>
        <time>2014-05-07T12:43:17.000Z</time>
      </trkpt>
      <trkpt lat="48.68617" lon="1.74272">
        <ele>157.39999389648</ele>
        <time>2014-05-07T12:43:18.000Z</time>
      </trkpt>
      <trkpt lat="48.6861" lon="1.74279">
        <ele>156.80000305176</ele>
        <time>2014-05-07T12:43:24.000Z</time>
      </trkpt>
      <trkpt lat="48.68602" lon="1.74287">
        <ele>156.19999694824</ele>
        <time>2014-05-07T12:43:31.000Z</time>
      </trkpt>
      <trkpt lat="48.68591" lon="1.74301">
        <ele>155.39999389648</ele>
        <time>2014-05-07T12:43:39.000Z</time>
      </trkpt>
      <trkpt lat="48.68586" lon="1.74311">
        <ele>155</ele>
        <time>2014-05-07T12:43:46.000Z</time>
      </trkpt>
      <trkpt lat="48.68584" lon="1.74317">
        <ele>154.80000305176</ele>
        <time>2014-05-07T12:43:49.000Z</time>
      </trkpt>
      <trkpt lat="48.68582" lon="1.74332">
        <ele>154.80000305176</ele>
        <time>2014-05-07T12:43:57.000Z</time>
      </trkpt>
      <trkpt lat="48.68582" lon="1.74338">
        <ele>155</ele>
        <time>2014-05-07T12:44:00.000Z</time>
      </trkpt>
      <trkpt lat="48.68579" lon="1.7435">
        <ele>155</ele>
        <time>2014-05-07T12:44:07.000Z</time>
      </trkpt>
      <trkpt lat="48.68578" lon="1.74362">
        <ele>155.19999694824</ele>
        <time>2014-05-07T12:44:13.000Z</time>
      </trkpt>
      <trkpt lat="48.68576" lon="1.74375">
        <ele>155.39999389648</ele>
        <time>2014-05-07T12:44:20.000Z</time>
      </trkpt>
      <trkpt lat="48.68574" lon="1.74393">
        <ele>154.19999694824</ele>
        <time>2014-05-07T12:44:29.000Z</time>
      </trkpt>
      <trkpt lat="48.68571" lon="1.74411">
        <ele>153.80000305176</ele>
        <time>2014-05-07T12:44:37.000Z</time>
      </trkpt>
      <trkpt lat="48.68564" lon="1.74424">
        <ele>154.19999694824</ele>
        <time>2014-05-07T12:44:45.000Z</time>
      </trkpt>
      <trkpt lat="48.68554" lon="1.74433">
        <ele>154</ele>
        <time>2014-05-07T12:44:53.000Z</time>
      </trkpt>
      <trkpt lat="48.68546" lon="1.74441">
        <ele>153.80000305176</ele>
        <time>2014-05-07T12:45:00.000Z</time>
      </trkpt>
      <trkpt lat="48.68545" lon="1.74442">
        <ele>153.80000305176</ele>
        <time>2014-05-07T12:45:01.000Z</time>
      </trkpt>
      <trkpt lat="48.6854" lon="1.74449">
        <ele>154</ele>
        <time>2014-05-07T12:45:06.000Z</time>
      </trkpt>
      <trkpt lat="48.6853" lon="1.74456">
        <ele>153.60000610352</ele>
        <time>2014-05-07T12:45:14.000Z</time>
      </trkpt>
      <trkpt lat="48.68528" lon="1.74457">
        <ele>153.39999389648</ele>
        <time>2014-05-07T12:45:16.000Z</time>
      </trkpt>
      <trkpt lat="48.68517" lon="1.74466">
        <ele>153.60000610352</ele>
        <time>2014-05-07T12:45:23.000Z</time>
      </trkpt>
      <trkpt lat="48.68508" lon="1.7447">
        <ele>154.19999694824</ele>
        <time>2014-05-07T12:45:30.000Z</time>
      </trkpt>
      <trkpt lat="48.68495" lon="1.74476">
        <ele>154</ele>
        <time>2014-05-07T12:45:39.000Z</time>
      </trkpt>
      <trkpt lat="48.68488" lon="1.74482">
        <ele>153.60000610352</ele>
        <time>2014-05-07T12:45:45.000Z</time>
      </trkpt>
      <trkpt lat="48.68479" lon="1.74489">
        <ele>153.19999694824</ele>
        <time>2014-05-07T12:45:53.000Z</time>
      </trkpt>
      <trkpt lat="48.68473" lon="1.74495">
        <ele>153.39999389648</ele>
        <time>2014-05-07T12:45:59.000Z</time>
      </trkpt>
      <trkpt lat="48.68464" lon="1.74501">
        <ele>153.60000610352</ele>
        <time>2014-05-07T12:46:06.000Z</time>
      </trkpt>
      <trkpt lat="48.68457" lon="1.74504">
        <ele>153.60000610352</ele>
        <time>2014-05-07T12:46:11.000Z</time>
      </trkpt>
      <trkpt lat="48.68455" lon="1.74507">
        <ele>153.60000610352</ele>
        <time>2014-05-07T12:46:16.000Z</time>
      </trkpt>
      <trkpt lat="48.6845" lon="1.74512">
        <ele>153.19999694824</ele>
        <time>2014-05-07T12:46:23.000Z</time>
      </trkpt>
      <trkpt lat="48.68442" lon="1.74517">
        <ele>152.60000610352</ele>
        <time>2014-05-07T12:46:31.000Z</time>
      </trkpt>
      <trkpt lat="48.6844" lon="1.74517">
        <ele>152.39999389648</ele>
        <time>2014-05-07T12:46:33.000Z</time>
      </trkpt>
      <trkpt lat="48.68436" lon="1.74521">
        <ele>152.19999694824</ele>
        <time>2014-05-07T12:46:37.000Z</time>
      </trkpt>
      <trkpt lat="48.68421" lon="1.74531">
        <ele>153.80000305176</ele>
        <time>2014-05-07T12:46:43.000Z</time>
      </trkpt>
      <trkpt lat="48.68411" lon="1.74536">
        <ele>154.80000305176</ele>
        <time>2014-05-07T12:46:49.000Z</time>
      </trkpt>
      <trkpt lat="48.68407" lon="1.74539">
        <ele>155.39999389648</ele>
        <time>2014-05-07T12:46:52.000Z</time>
      </trkpt>
      <trkpt lat="48.68401" lon="1.74548">
        <ele>155</ele>
        <time>2014-05-07T12:46:58.000Z</time>
      </trkpt>
      <trkpt lat="48.68394" lon="1.74557">
        <ele>154.60000610352</ele>
        <time>2014-05-07T12:47:05.000Z</time>
      </trkpt>
      <trkpt lat="48.68389" lon="1.74567">
        <ele>154.19999694824</ele>
        <time>2014-05-07T12:47:11.000Z</time>
      </trkpt>
      <trkpt lat="48.68384" lon="1.74575">
        <ele>154.19999694824</ele>
        <time>2014-05-07T12:47:16.000Z</time>
      </trkpt>
      <trkpt lat="48.68374" lon="1.74593">
        <ele>155.19999694824</ele>
        <time>2014-05-07T12:47:26.000Z</time>
      </trkpt>
      <trkpt lat="48.68373" lon="1.74596">
        <ele>155.19999694824</ele>
        <time>2014-05-07T12:47:27.000Z</time>
      </trkpt>
      <trkpt lat="48.68372" lon="1.74603">
        <ele>155</ele>
        <time>2014-05-07T12:47:31.000Z</time>
      </trkpt>
      <trkpt lat="48.68367" lon="1.74617">
        <ele>154.39999389648</ele>
        <time>2014-05-07T12:47:39.000Z</time>
      </trkpt>
      <trkpt lat="48.68363" lon="1.74635">
        <ele>154</ele>
        <time>2014-05-07T12:47:47.000Z</time>
      </trkpt>
      <trkpt lat="48.68357" lon="1.74644">
        <ele>153.39999389648</ele>
        <time>2014-05-07T12:47:53.000Z</time>
      </trkpt>
      <trkpt lat="48.68353" lon="1.7466">
        <ele>153.19999694824</ele>
        <time>2014-05-07T12:48:00.000Z</time>
      </trkpt>
      <trkpt lat="48.68347" lon="1.74673">
        <ele>154</ele>
        <time>2014-05-07T12:48:07.000Z</time>
      </trkpt>
      <trkpt lat="48.6834" lon="1.74681">
        <ele>155</ele>
        <time>2014-05-07T12:48:14.000Z</time>
      </trkpt>
      <trkpt lat="48.68335" lon="1.7469">
        <ele>155.60000610352</ele>
        <time>2014-05-07T12:48:20.000Z</time>
      </trkpt>
      <trkpt lat="48.68329" lon="1.74703">
        <ele>156.39999389648</ele>
        <time>2014-05-07T12:48:26.000Z</time>
      </trkpt>
      <trkpt lat="48.68324" lon="1.74713">
        <ele>156.80000305176</ele>
        <time>2014-05-07T12:48:32.000Z</time>
      </trkpt>
      <trkpt lat="48.68319" lon="1.74723">
        <ele>156</ele>
        <time>2014-05-07T12:48:38.000Z</time>
      </trkpt>
      <trkpt lat="48.68317" lon="1.7473">
        <ele>155.60000610352</ele>
        <time>2014-05-07T12:48:41.000Z</time>
      </trkpt>
      <trkpt lat="48.68311" lon="1.74741">
        <ele>155.19999694824</ele>
        <time>2014-05-07T12:48:48.000Z</time>
      </trkpt>
      <trkpt lat="48.68305" lon="1.74752">
        <ele>155.60000610352</ele>
        <time>2014-05-07T12:48:55.000Z</time>
      </trkpt>
      <trkpt lat="48.683" lon="1.74761">
        <ele>155.80000305176</ele>
        <time>2014-05-07T12:49:00.000Z</time>
      </trkpt>
      <trkpt lat="48.68297" lon="1.74769">
        <ele>155.80000305176</ele>
        <time>2014-05-07T12:49:04.000Z</time>
      </trkpt>
      <trkpt lat="48.68293" lon="1.74773">
        <ele>155.39999389648</ele>
        <time>2014-05-07T12:49:07.000Z</time>
      </trkpt>
      <trkpt lat="48.68287" lon="1.74781">
        <ele>154.60000610352</ele>
        <time>2014-05-07T12:49:14.000Z</time>
      </trkpt>
      <trkpt lat="48.68286" lon="1.74782">
        <ele>154.39999389648</ele>
        <time>2014-05-07T12:49:15.000Z</time>
      </trkpt>
      <trkpt lat="48.68283" lon="1.74789">
        <ele>154</ele>
        <time>2014-05-07T12:49:19.000Z</time>
      </trkpt>
      <trkpt lat="48.68281" lon="1.74796">
        <ele>153.60000610352</ele>
        <time>2014-05-07T12:49:22.000Z</time>
      </trkpt>
      <trkpt lat="48.68273" lon="1.74812">
        <ele>152.39999389648</ele>
        <time>2014-05-07T12:49:29.000Z</time>
      </trkpt>
      <trkpt lat="48.68266" lon="1.74819">
        <ele>152.39999389648</ele>
        <time>2014-05-07T12:49:33.000Z</time>
      </trkpt>
      <trkpt lat="48.68258" lon="1.74833">
        <ele>152.60000610352</ele>
        <time>2014-05-07T12:49:40.000Z</time>
      </trkpt>
      <trkpt lat="48.68251" lon="1.74848">
        <ele>153.19999694824</ele>
        <time>2014-05-07T12:49:48.000Z</time>
      </trkpt>
      <trkpt lat="48.68246" lon="1.74861">
        <ele>153.39999389648</ele>
        <time>2014-05-07T12:49:56.000Z</time>
      </trkpt>
      <trkpt lat="48.68245" lon="1.74864">
        <ele>153.60000610352</ele>
        <time>2014-05-07T12:49:58.000Z</time>
      </trkpt>
      <trkpt lat="48.68242" lon="1.74875">
        <ele>153.60000610352</ele>
        <time>2014-05-07T12:50:05.000Z</time>
      </trkpt>
      <trkpt lat="48.68239" lon="1.74886">
        <ele>153</ele>
        <time>2014-05-07T12:50:12.000Z</time>
      </trkpt>
      <trkpt lat="48.68235" lon="1.749">
        <ele>152</ele>
        <time>2014-05-07T12:50:19.000Z</time>
      </trkpt>
      <trkpt lat="48.68234" lon="1.74907">
        <ele>151.80000305176</ele>
        <time>2014-05-07T12:50:23.000Z</time>
      </trkpt>
      <trkpt lat="48.68233" lon="1.74911">
        <ele>152</ele>
        <time>2014-05-07T12:50:25.000Z</time>
      </trkpt>
      <trkpt lat="48.68231" lon="1.74919">
        <ele>152.39999389648</ele>
        <time>2014-05-07T12:50:29.000Z</time>
      </trkpt>
      <trkpt lat="48.68223" lon="1.74934">
        <ele>153.19999694824</ele>
        <time>2014-05-07T12:50:36.000Z</time>
      </trkpt>
      <trkpt lat="48.68219" lon="1.74946">
        <ele>153.19999694824</ele>
        <time>2014-05-07T12:50:43.000Z</time>
      </trkpt>
      <trkpt lat="48.68218" lon="1.74958">
        <ele>153</ele>
        <time>2014-05-07T12:50:49.000Z</time>
      </trkpt>
      <trkpt lat="48.68217" lon="1.74967">
        <ele>152.80000305176</ele>
        <time>2014-05-07T12:50:53.000Z</time>
      </trkpt>
      <trkpt lat="48.68217" lon="1.74971">
        <ele>152.80000305176</ele>
        <time>2014-05-07T12:50:55.000Z</time>
      </trkpt>
      <trkpt lat="48.68216" lon="1.74984">
        <ele>152.39999389648</ele>
        <time>2014-05-07T12:51:01.000Z</time>
      </trkpt>
      <trkpt lat="48.68214" lon="1.74993">
        <ele>152.60000610352</ele>
        <time>2014-05-07T12:51:07.000Z</time>
      </trkpt>
      <trkpt lat="48.6821" lon="1.75009">
        <ele>153.19999694824</ele>
        <time>2014-05-07T12:51:14.000Z</time>
      </trkpt>
      <trkpt lat="48.68202" lon="1.75025">
        <ele>152.60000610352</ele>
        <time>2014-05-07T12:51:23.000Z</time>
      </trkpt>
      <trkpt lat="48.68202" lon="1.75027">
        <ele>152.39999389648</ele>
        <time>2014-05-07T12:51:24.000Z</time>
      </trkpt>
      <trkpt lat="48.68198" lon="1.75037">
        <ele>152.19999694824</ele>
        <time>2014-05-07T12:51:30.000Z</time>
      </trkpt>
      <trkpt lat="48.68195" lon="1.75051">
        <ele>151.80000305176</ele>
        <time>2014-05-07T12:51:37.000Z</time>
      </trkpt>
      <trkpt lat="48.68193" lon="1.7506">
        <ele>151.60000610352</ele>
        <time>2014-05-07T12:51:41.000Z</time>
      </trkpt>
      <trkpt lat="48.6819" lon="1.75062">
        <ele>151.39999389648</ele>
        <time>2014-05-07T12:51:43.000Z</time>
      </trkpt>
      <trkpt lat="48.68183" lon="1.75077">
        <ele>151.19999694824</ele>
        <time>2014-05-07T12:51:51.000Z</time>
      </trkpt>
      <trkpt lat="48.6818" lon="1.75087">
        <ele>151.60000610352</ele>
        <time>2014-05-07T12:51:57.000Z</time>
      </trkpt>
      <trkpt lat="48.68175" lon="1.75094">
        <ele>151.80000305176</ele>
        <time>2014-05-07T12:52:02.000Z</time>
      </trkpt>
      <trkpt lat="48.68169" lon="1.75104">
        <ele>152</ele>
        <time>2014-05-07T12:52:09.000Z</time>
      </trkpt>
      <trkpt lat="48.68161" lon="1.75115">
        <ele>152.19999694824</ele>
        <time>2014-05-07T12:52:17.000Z</time>
      </trkpt>
      <trkpt lat="48.68155" lon="1.75125">
        <ele>152.19999694824</ele>
        <time>2014-05-07T12:52:23.000Z</time>
      </trkpt>
      <trkpt lat="48.68147" lon="1.75138">
        <ele>151.80000305176</ele>
        <time>2014-05-07T12:52:31.000Z</time>
      </trkpt>
      <trkpt lat="48.68139" lon="1.75149">
        <ele>151.39999389648</ele>
        <time>2014-05-07T12:52:39.000Z</time>
      </trkpt>
      <trkpt lat="48.68132" lon="1.75163">
        <ele>150.80000305176</ele>
        <time>2014-05-07T12:52:47.000Z</time>
      </trkpt>
      <trkpt lat="48.68124" lon="1.75173">
        <ele>150</ele>
        <time>2014-05-07T12:52:54.000Z</time>
      </trkpt>
      <trkpt lat="48.68116" lon="1.75186">
        <ele>150</ele>
        <time>2014-05-07T12:53:02.000Z</time>
      </trkpt>
      <trkpt lat="48.68104" lon="1.75204">
        <ele>149.80000305176</ele>
        <time>2014-05-07T12:53:12.000Z</time>
      </trkpt>
      <trkpt lat="48.68093" lon="1.75224">
        <ele>150.39999389648</ele>
        <time>2014-05-07T12:53:24.000Z</time>
      </trkpt>
      <trkpt lat="48.68088" lon="1.75231">
        <ele>150.39999389648</ele>
        <time>2014-05-07T12:53:29.000Z</time>
      </trkpt>
      <trkpt lat="48.68086" lon="1.75241">
        <ele>150.19999694824</ele>
        <time>2014-05-07T12:53:34.000Z</time>
      </trkpt>
      <trkpt lat="48.6808" lon="1.75258">
        <ele>150</ele>
        <time>2014-05-07T12:53:43.000Z</time>
      </trkpt>
      <trkpt lat="48.68078" lon="1.75274">
        <ele>149.80000305176</ele>
        <time>2014-05-07T12:53:51.000Z</time>
      </trkpt>
      <trkpt lat="48.68077" lon="1.75292">
        <ele>149.80000305176</ele>
        <time>2014-05-07T12:53:59.000Z</time>
      </trkpt>
      <trkpt lat="48.68076" lon="1.75306">
        <ele>149.80000305176</ele>
        <time>2014-05-07T12:54:04.000Z</time>
      </trkpt>
      <trkpt lat="48.68074" lon="1.75329">
        <ele>149.80000305176</ele>
        <time>2014-05-07T12:54:15.000Z</time>
      </trkpt>
      <trkpt lat="48.6807" lon="1.75352">
        <ele>149.39999389648</ele>
        <time>2014-05-07T12:54:26.000Z</time>
      </trkpt>
      <trkpt lat="48.68068" lon="1.75378">
        <ele>149.19999694824</ele>
        <time>2014-05-07T12:54:38.000Z</time>
      </trkpt>
      <trkpt lat="48.68063" lon="1.75406">
        <ele>149</ele>
        <time>2014-05-07T12:54:51.000Z</time>
      </trkpt>
      <trkpt lat="48.68063" lon="1.75408">
        <ele>149</ele>
        <time>2014-05-07T12:54:52.000Z</time>
      </trkpt>
      <trkpt lat="48.68061" lon="1.7542">
        <ele>149</ele>
        <time>2014-05-07T12:54:58.000Z</time>
      </trkpt>
      <trkpt lat="48.68058" lon="1.75437">
        <ele>149</ele>
        <time>2014-05-07T12:55:07.000Z</time>
      </trkpt>
      <trkpt lat="48.68053" lon="1.75458">
        <ele>148.39999389648</ele>
        <time>2014-05-07T12:55:17.000Z</time>
      </trkpt>
      <trkpt lat="48.68049" lon="1.75486">
        <ele>147.39999389648</ele>
        <time>2014-05-07T12:55:30.000Z</time>
      </trkpt>
      <trkpt lat="48.68048" lon="1.75505">
        <ele>147.39999389648</ele>
        <time>2014-05-07T12:55:39.000Z</time>
      </trkpt>
      <trkpt lat="48.68053" lon="1.75517">
        <ele>147.60000610352</ele>
        <time>2014-05-07T12:55:46.000Z</time>
      </trkpt>
      <trkpt lat="48.68064" lon="1.75526">
        <ele>148.19999694824</ele>
        <time>2014-05-07T12:55:54.000Z</time>
      </trkpt>
      <trkpt lat="48.6807" lon="1.7553">
        <ele>148.39999389648</ele>
        <time>2014-05-07T12:55:58.000Z</time>
      </trkpt>
      <trkpt lat="48.68078" lon="1.75537">
        <ele>148.80000305176</ele>
        <time>2014-05-07T12:56:05.000Z</time>
      </trkpt>
      <trkpt lat="48.68088" lon="1.75542">
        <ele>149.19999694824</ele>
        <time>2014-05-07T12:56:13.000Z</time>
      </trkpt>
      <trkpt lat="48.68097" lon="1.75551">
        <ele>149.60000610352</ele>
        <time>2014-05-07T12:56:21.000Z</time>
      </trkpt>
      <trkpt lat="48.68107" lon="1.7556">
        <ele>150</ele>
        <time>2014-05-07T12:56:30.000Z</time>
      </trkpt>
      <trkpt lat="48.68115" lon="1.75569">
        <ele>150.19999694824</ele>
        <time>2014-05-07T12:56:37.000Z</time>
      </trkpt>
      <trkpt lat="48.68126" lon="1.75577">
        <ele>150.60000610352</ele>
        <time>2014-05-07T12:56:45.000Z</time>
      </trkpt>
      <trkpt lat="48.68132" lon="1.75582">
        <ele>150.60000610352</ele>
        <time>2014-05-07T12:56:49.000Z</time>
      </trkpt>
      <trkpt lat="48.68143" lon="1.75587">
        <ele>151</ele>
        <time>2014-05-07T12:56:57.000Z</time>
      </trkpt>
      <trkpt lat="48.68161" lon="1.75596">
        <ele>151.39999389648</ele>
        <time>2014-05-07T12:57:10.000Z</time>
      </trkpt>
      <trkpt lat="48.68179" lon="1.75606">
        <ele>151.80000305176</ele>
        <time>2014-05-07T12:57:23.000Z</time>
      </trkpt>
      <trkpt lat="48.68195" lon="1.75613">
        <ele>152.19999694824</ele>
        <time>2014-05-07T12:57:34.000Z</time>
      </trkpt>
      <trkpt lat="48.68209" lon="1.75617">
        <ele>152.19999694824</ele>
        <time>2014-05-07T12:57:44.000Z</time>
      </trkpt>
      <trkpt lat="48.68226" lon="1.75622">
        <ele>152.39999389648</ele>
        <time>2014-05-07T12:57:55.000Z</time>
      </trkpt>
      <trkpt lat="48.68237" lon="1.75626">
        <ele>152.60000610352</ele>
        <time>2014-05-07T12:58:03.000Z</time>
      </trkpt>
      <trkpt lat="48.68247" lon="1.75631">
        <ele>152.80000305176</ele>
        <time>2014-05-07T12:58:11.000Z</time>
      </trkpt>
      <trkpt lat="48.6826" lon="1.75635">
        <ele>152.80000305176</ele>
        <time>2014-05-07T12:58:20.000Z</time>
      </trkpt>
      <trkpt lat="48.68278" lon="1.75639">
        <ele>153</ele>
        <time>2014-05-07T12:58:32.000Z</time>
      </trkpt>
      <trkpt lat="48.68294" lon="1.75644">
        <ele>152.80000305176</ele>
        <time>2014-05-07T12:58:43.000Z</time>
      </trkpt>
      <trkpt lat="48.68309" lon="1.75646">
        <ele>152.60000610352</ele>
        <time>2014-05-07T12:58:53.000Z</time>
      </trkpt>
      <trkpt lat="48.68319" lon="1.75648">
        <ele>152.39999389648</ele>
        <time>2014-05-07T12:59:00.000Z</time>
      </trkpt>
      <trkpt lat="48.68332" lon="1.75639">
        <ele>152.19999694824</ele>
        <time>2014-05-07T12:59:10.000Z</time>
      </trkpt>
      <trkpt lat="48.68341" lon="1.75628">
        <ele>152.39999389648</ele>
        <time>2014-05-07T12:59:18.000Z</time>
      </trkpt>
      <trkpt lat="48.6835" lon="1.7562">
        <ele>152.39999389648</ele>
        <time>2014-05-07T12:59:25.000Z</time>
      </trkpt>
      <trkpt lat="48.68359" lon="1.75612">
        <ele>152.60000610352</ele>
        <time>2014-05-07T12:59:33.000Z</time>
      </trkpt>
      <trkpt lat="48.68368" lon="1.75609">
        <ele>152.80000305176</ele>
        <time>2014-05-07T12:59:40.000Z</time>
      </trkpt>
      <trkpt lat="48.68377" lon="1.75606">
        <ele>153.19999694824</ele>
        <time>2014-05-07T12:59:47.000Z</time>
      </trkpt>
      <trkpt lat="48.68388" lon="1.75598">
        <ele>153.60000610352</ele>
        <time>2014-05-07T12:59:55.000Z</time>
      </trkpt>
      <trkpt lat="48.68397" lon="1.75591">
        <ele>153.80000305176</ele>
        <time>2014-05-07T13:00:02.000Z</time>
      </trkpt>
      <trkpt lat="48.6841" lon="1.75582">
        <ele>154.19999694824</ele>
        <time>2014-05-07T13:00:12.000Z</time>
      </trkpt>
      <trkpt lat="48.6842" lon="1.75578">
        <ele>154.60000610352</ele>
        <time>2014-05-07T13:00:20.000Z</time>
      </trkpt>
      <trkpt lat="48.68425" lon="1.75575">
        <ele>154.60000610352</ele>
        <time>2014-05-07T13:00:24.000Z</time>
      </trkpt>
      <trkpt lat="48.68434" lon="1.75571">
        <ele>155</ele>
        <time>2014-05-07T13:00:31.000Z</time>
      </trkpt>
      <trkpt lat="48.68436" lon="1.75571">
        <ele>155</ele>
        <time>2014-05-07T13:00:32.000Z</time>
      </trkpt>
      <trkpt lat="48.68451" lon="1.75564">
        <ele>155.60000610352</ele>
        <time>2014-05-07T13:00:41.000Z</time>
      </trkpt>
      <trkpt lat="48.6846" lon="1.75561">
        <ele>155.80000305176</ele>
        <time>2014-05-07T13:00:47.000Z</time>
      </trkpt>
      <trkpt lat="48.68466" lon="1.75557">
        <ele>156</ele>
        <time>2014-05-07T13:00:52.000Z</time>
      </trkpt>
      <trkpt lat="48.68473" lon="1.75553">
        <ele>156.39999389648</ele>
        <time>2014-05-07T13:00:58.000Z</time>
      </trkpt>
      <trkpt lat="48.68482" lon="1.75547">
        <ele>156.60000610352</ele>
        <time>2014-05-07T13:01:04.000Z</time>
      </trkpt>
      <trkpt lat="48.68487" lon="1.75545">
        <ele>156.80000305176</ele>
        <time>2014-05-07T13:01:08.000Z</time>
      </trkpt>
      <trkpt lat="48.68494" lon="1.75544">
        <ele>157</ele>
        <time>2014-05-07T13:01:12.000Z</time>
      </trkpt>
      <trkpt lat="48.68499" lon="1.75543">
        <ele>156.80000305176</ele>
        <time>2014-05-07T13:01:15.000Z</time>
      </trkpt>
      <trkpt lat="48.68509" lon="1.75541">
        <ele>156.60000610352</ele>
        <time>2014-05-07T13:01:22.000Z</time>
      </trkpt>
      <trkpt lat="48.68518" lon="1.75535">
        <ele>156.80000305176</ele>
        <time>2014-05-07T13:01:29.000Z</time>
      </trkpt>
      <trkpt lat="48.6852" lon="1.75535">
        <ele>156.80000305176</ele>
        <time>2014-05-07T13:01:30.000Z</time>
      </trkpt>
      <trkpt lat="48.68525" lon="1.75529">
        <ele>157.19999694824</ele>
        <time>2014-05-07T13:01:34.000Z</time>
      </trkpt>
      <trkpt lat="48.68532" lon="1.75523">
        <ele>157.80000305176</ele>
        <time>2014-05-07T13:01:39.000Z</time>
      </trkpt>
      <trkpt lat="48.68537" lon="1.7552">
        <ele>158.19999694824</ele>
        <time>2014-05-07T13:01:43.000Z</time>
      </trkpt>
      <trkpt lat="48.68549" lon="1.75513">
        <ele>159</ele>
        <time>2014-05-07T13:01:51.000Z</time>
      </trkpt>
      <trkpt lat="48.68558" lon="1.75508">
        <ele>159</ele>
        <time>2014-05-07T13:01:55.000Z</time>
      </trkpt>
      <trkpt lat="48.68579" lon="1.75498">
        <ele>159</ele>
        <time>2014-05-07T13:02:01.000Z</time>
      </trkpt>
      <trkpt lat="48.68597" lon="1.75489">
        <ele>159</ele>
        <time>2014-05-07T13:02:06.000Z</time>
      </trkpt>
      <trkpt lat="48.68615" lon="1.75481">
        <ele>159.19999694824</ele>
        <time>2014-05-07T13:02:11.000Z</time>
      </trkpt>
      <trkpt lat="48.68641" lon="1.75468">
        <ele>159.60000610352</ele>
        <time>2014-05-07T13:02:18.000Z</time>
      </trkpt>
      <trkpt lat="48.68662" lon="1.75456">
        <ele>159.80000305176</ele>
        <time>2014-05-07T13:02:24.000Z</time>
      </trkpt>
      <trkpt lat="48.68683" lon="1.75445">
        <ele>158.60000610352</ele>
        <time>2014-05-07T13:02:30.000Z</time>
      </trkpt>
      <trkpt lat="48.68698" lon="1.75437">
        <ele>158</ele>
        <time>2014-05-07T13:02:35.000Z</time>
      </trkpt>
      <trkpt lat="48.6872" lon="1.75425">
        <ele>157.39999389648</ele>
        <time>2014-05-07T13:02:41.000Z</time>
      </trkpt>
      <trkpt lat="48.68744" lon="1.75411">
        <ele>157.19999694824</ele>
        <time>2014-05-07T13:02:48.000Z</time>
      </trkpt>
      <trkpt lat="48.68764" lon="1.75401">
        <ele>157</ele>
        <time>2014-05-07T13:02:54.000Z</time>
      </trkpt>
      <trkpt lat="48.68779" lon="1.75392">
        <ele>156.80000305176</ele>
        <time>2014-05-07T13:03:00.000Z</time>
      </trkpt>
      <trkpt lat="48.68794" lon="1.75384">
        <ele>156.80000305176</ele>
        <time>2014-05-07T13:03:05.000Z</time>
      </trkpt>
      <trkpt lat="48.68807" lon="1.75376">
        <ele>156.80000305176</ele>
        <time>2014-05-07T13:03:10.000Z</time>
      </trkpt>
      <trkpt lat="48.68809" lon="1.75374">
        <ele>156.80000305176</ele>
        <time>2014-05-07T13:03:11.000Z</time>
      </trkpt>
      <trkpt lat="48.68821" lon="1.75366">
        <ele>156.60000610352</ele>
        <time>2014-05-07T13:03:16.000Z</time>
      </trkpt>
      <trkpt lat="48.6884" lon="1.75361">
        <ele>156.39999389648</ele>
        <time>2014-05-07T13:03:22.000Z</time>
      </trkpt>
      <trkpt lat="48.68854" lon="1.75353">
        <ele>156.19999694824</ele>
        <time>2014-05-07T13:03:27.000Z</time>
      </trkpt>
      <trkpt lat="48.68864" lon="1.75347">
        <ele>155.80000305176</ele>
        <time>2014-05-07T13:03:31.000Z</time>
      </trkpt>
      <trkpt lat="48.68879" lon="1.75338">
        <ele>155.39999389648</ele>
        <time>2014-05-07T13:03:36.000Z</time>
      </trkpt>
      <trkpt lat="48.68895" lon="1.75329">
        <ele>154.80000305176</ele>
        <time>2014-05-07T13:03:42.000Z</time>
      </trkpt>
      <trkpt lat="48.68901" lon="1.75324">
        <ele>154.60000610352</ele>
        <time>2014-05-07T13:03:46.000Z</time>
      </trkpt>
      <trkpt lat="48.68912" lon="1.75318">
        <ele>154.19999694824</ele>
        <time>2014-05-07T13:03:53.000Z</time>
      </trkpt>
      <trkpt lat="48.68919" lon="1.75313">
        <ele>154.19999694824</ele>
        <time>2014-05-07T13:03:58.000Z</time>
      </trkpt>
      <trkpt lat="48.68926" lon="1.75307">
        <ele>154</ele>
        <time>2014-05-07T13:04:03.000Z</time>
      </trkpt>
      <trkpt lat="48.68929" lon="1.75306">
        <ele>154</ele>
        <time>2014-05-07T13:04:05.000Z</time>
      </trkpt>
      <trkpt lat="48.68939" lon="1.75298">
        <ele>153.80000305176</ele>
        <time>2014-05-07T13:04:13.000Z</time>
      </trkpt>
      <trkpt lat="48.68949" lon="1.75293">
        <ele>154.19999694824</ele>
        <time>2014-05-07T13:04:19.000Z</time>
      </trkpt>
      <trkpt lat="48.68959" lon="1.75289">
        <ele>154.39999389648</ele>
        <time>2014-05-07T13:04:26.000Z</time>
      </trkpt>
      <trkpt lat="48.68972" lon="1.7528">
        <ele>154.80000305176</ele>
        <time>2014-05-07T13:04:34.000Z</time>
      </trkpt>
      <trkpt lat="48.68976" lon="1.7528">
        <ele>155</ele>
        <time>2014-05-07T13:04:38.000Z</time>
      </trkpt>
      <trkpt lat="48.68981" lon="1.75276">
        <ele>155</ele>
        <time>2014-05-07T13:04:45.000Z</time>
      </trkpt>
      <trkpt lat="48.68982" lon="1.75275">
        <ele>155</ele>
        <time>2014-05-07T13:04:48.000Z</time>
      </trkpt>
      <trkpt lat="48.6899" lon="1.7527">
        <ele>155</ele>
        <time>2014-05-07T13:05:00.000Z</time>
      </trkpt>
      <trkpt lat="48.68996" lon="1.7527">
        <ele>155.19999694824</ele>
        <time>2014-05-07T13:05:03.000Z</time>
      </trkpt>
      <trkpt lat="48.69007" lon="1.75271">
        <ele>155.39999389648</ele>
        <time>2014-05-07T13:05:10.000Z</time>
      </trkpt>
      <trkpt lat="48.69014" lon="1.75278">
        <ele>155.80000305176</ele>
        <time>2014-05-07T13:05:16.000Z</time>
      </trkpt>
      <trkpt lat="48.69023" lon="1.75287">
        <ele>156.19999694824</ele>
        <time>2014-05-07T13:05:22.000Z</time>
      </trkpt>
      <trkpt lat="48.69028" lon="1.75292">
        <ele>156.39999389648</ele>
        <time>2014-05-07T13:05:26.000Z</time>
      </trkpt>
      <trkpt lat="48.69034" lon="1.75298">
        <ele>156.60000610352</ele>
        <time>2014-05-07T13:05:30.000Z</time>
      </trkpt>
      <trkpt lat="48.69043" lon="1.75306">
        <ele>157</ele>
        <time>2014-05-07T13:05:38.000Z</time>
      </trkpt>
      <trkpt lat="48.69051" lon="1.75313">
        <ele>157.19999694824</ele>
        <time>2014-05-07T13:05:44.000Z</time>
      </trkpt>
      <trkpt lat="48.69054" lon="1.75316">
        <ele>157.19999694824</ele>
        <time>2014-05-07T13:05:46.000Z</time>
      </trkpt>
      <trkpt lat="48.69063" lon="1.75325">
        <ele>157.39999389648</ele>
        <time>2014-05-07T13:05:53.000Z</time>
      </trkpt>
      <trkpt lat="48.69076" lon="1.75336">
        <ele>157.39999389648</ele>
        <time>2014-05-07T13:06:02.000Z</time>
      </trkpt>
      <trkpt lat="48.69078" lon="1.75337">
        <ele>157.39999389648</ele>
        <time>2014-05-07T13:06:03.000Z</time>
      </trkpt>
      <trkpt lat="48.69085" lon="1.75343">
        <ele>157.19999694824</ele>
        <time>2014-05-07T13:06:09.000Z</time>
      </trkpt>
      <trkpt lat="48.69096" lon="1.75351">
        <ele>157.19999694824</ele>
        <time>2014-05-07T13:06:17.000Z</time>
      </trkpt>
      <trkpt lat="48.69103" lon="1.75359">
        <ele>157</ele>
        <time>2014-05-07T13:06:23.000Z</time>
      </trkpt>
      <trkpt lat="48.69111" lon="1.75368">
        <ele>157</ele>
        <time>2014-05-07T13:06:29.000Z</time>
      </trkpt>
      <trkpt lat="48.69118" lon="1.75374">
        <ele>157</ele>
        <time>2014-05-07T13:06:35.000Z</time>
      </trkpt>
      <trkpt lat="48.69124" lon="1.75381">
        <ele>157</ele>
        <time>2014-05-07T13:06:40.000Z</time>
      </trkpt>
      <trkpt lat="48.69133" lon="1.75389">
        <ele>157</ele>
        <time>2014-05-07T13:06:47.000Z</time>
      </trkpt>
      <trkpt lat="48.69143" lon="1.75398">
        <ele>157.19999694824</ele>
        <time>2014-05-07T13:06:54.000Z</time>
      </trkpt>
      <trkpt lat="48.69149" lon="1.75404">
        <ele>157</ele>
        <time>2014-05-07T13:06:59.000Z</time>
      </trkpt>
      <trkpt lat="48.69157" lon="1.75413">
        <ele>157.19999694824</ele>
        <time>2014-05-07T13:07:05.000Z</time>
      </trkpt>
      <trkpt lat="48.69163" lon="1.75418">
        <ele>157.19999694824</ele>
        <time>2014-05-07T13:07:10.000Z</time>
      </trkpt>
      <trkpt lat="48.6917" lon="1.75427">
        <ele>157.39999389648</ele>
        <time>2014-05-07T13:07:16.000Z</time>
      </trkpt>
      <trkpt lat="48.69174" lon="1.75433">
        <ele>157.39999389648</ele>
        <time>2014-05-07T13:07:20.000Z</time>
      </trkpt>
      <trkpt lat="48.69183" lon="1.75441">
        <ele>157.39999389648</ele>
        <time>2014-05-07T13:07:26.000Z</time>
      </trkpt>
      <trkpt lat="48.69189" lon="1.75446">
        <ele>157.60000610352</ele>
        <time>2014-05-07T13:07:30.000Z</time>
      </trkpt>
      <trkpt lat="48.692" lon="1.75454">
        <ele>157.60000610352</ele>
        <time>2014-05-07T13:07:38.000Z</time>
      </trkpt>
      <trkpt lat="48.69205" lon="1.75458">
        <ele>157.60000610352</ele>
        <time>2014-05-07T13:07:43.000Z</time>
      </trkpt>
      <trkpt lat="48.69213" lon="1.75464">
        <ele>157.60000610352</ele>
        <time>2014-05-07T13:07:49.000Z</time>
      </trkpt>
      <trkpt lat="48.69222" lon="1.75476">
        <ele>157.60000610352</ele>
        <time>2014-05-07T13:07:57.000Z</time>
      </trkpt>
      <trkpt lat="48.69229" lon="1.75484">
        <ele>157.60000610352</ele>
        <time>2014-05-07T13:08:03.000Z</time>
      </trkpt>
      <trkpt lat="48.69232" lon="1.75486">
        <ele>157.60000610352</ele>
        <time>2014-05-07T13:08:05.000Z</time>
      </trkpt>
      <trkpt lat="48.6924" lon="1.75495">
        <ele>157.60000610352</ele>
        <time>2014-05-07T13:08:11.000Z</time>
      </trkpt>
      <trkpt lat="48.6924" lon="1.75496">
        <ele>157.60000610352</ele>
        <time>2014-05-07T13:08:12.000Z</time>
      </trkpt>
      <trkpt lat="48.69248" lon="1.75504">
        <ele>157.80000305176</ele>
        <time>2014-05-07T13:08:18.000Z</time>
      </trkpt>
      <trkpt lat="48.69251" lon="1.75507">
        <ele>157.80000305176</ele>
        <time>2014-05-07T13:08:20.000Z</time>
      </trkpt>
      <trkpt lat="48.6926" lon="1.75516">
        <ele>157.80000305176</ele>
        <time>2014-05-07T13:08:27.000Z</time>
      </trkpt>
      <trkpt lat="48.69261" lon="1.75517">
        <ele>157.80000305176</ele>
        <time>2014-05-07T13:08:28.000Z</time>
      </trkpt>
      <trkpt lat="48.69265" lon="1.7552">
        <ele>158</ele>
        <time>2014-05-07T13:08:32.000Z</time>
      </trkpt>
      <trkpt lat="48.69267" lon="1.75521">
        <ele>158</ele>
        <time>2014-05-07T13:08:34.000Z</time>
      </trkpt>
      <trkpt lat="48.69276" lon="1.75531">
        <ele>158.19999694824</ele>
        <time>2014-05-07T13:08:41.000Z</time>
      </trkpt>
      <trkpt lat="48.69277" lon="1.75533">
        <ele>158.19999694824</ele>
        <time>2014-05-07T13:08:43.000Z</time>
      </trkpt>
      <trkpt lat="48.69282" lon="1.75535">
        <ele>158.39999389648</ele>
        <time>2014-05-07T13:08:47.000Z</time>
      </trkpt>
      <trkpt lat="48.69284" lon="1.75536">
        <ele>158.60000610352</ele>
        <time>2014-05-07T13:08:49.000Z</time>
      </trkpt>
      <trkpt lat="48.69287" lon="1.75542">
        <ele>158.60000610352</ele>
        <time>2014-05-07T13:08:53.000Z</time>
      </trkpt>
      <trkpt lat="48.69296" lon="1.75555">
        <ele>159</ele>
        <time>2014-05-07T13:09:00.000Z</time>
      </trkpt>
      <trkpt lat="48.69302" lon="1.75564">
        <ele>159.19999694824</ele>
        <time>2014-05-07T13:09:05.000Z</time>
      </trkpt>
      <trkpt lat="48.69311" lon="1.75572">
        <ele>159.60000610352</ele>
        <time>2014-05-07T13:09:12.000Z</time>
      </trkpt>
      <trkpt lat="48.69315" lon="1.75574">
        <ele>159.60000610352</ele>
        <time>2014-05-07T13:09:14.000Z</time>
      </trkpt>
      <trkpt lat="48.69325" lon="1.75582">
        <ele>160.19999694824</ele>
        <time>2014-05-07T13:09:21.000Z</time>
      </trkpt>
      <trkpt lat="48.69329" lon="1.75585">
        <ele>160.39999389648</ele>
        <time>2014-05-07T13:09:24.000Z</time>
      </trkpt>
      <trkpt lat="48.69331" lon="1.75588">
        <ele>160.60000610352</ele>
        <time>2014-05-07T13:09:26.000Z</time>
      </trkpt>
      <trkpt lat="48.6934" lon="1.7559">
        <ele>161</ele>
        <time>2014-05-07T13:09:33.000Z</time>
      </trkpt>
      <trkpt lat="48.69341" lon="1.7559">
        <ele>161</ele>
        <time>2014-05-07T13:09:34.000Z</time>
      </trkpt>
      <trkpt lat="48.69351" lon="1.75591">
        <ele>161.39999389648</ele>
        <time>2014-05-07T13:09:41.000Z</time>
      </trkpt>
      <trkpt lat="48.69358" lon="1.75591">
        <ele>161.39999389648</ele>
        <time>2014-05-07T13:09:46.000Z</time>
      </trkpt>
      <trkpt lat="48.69366" lon="1.75593">
        <ele>161.60000610352</ele>
        <time>2014-05-07T13:09:51.000Z</time>
      </trkpt>
      <trkpt lat="48.69369" lon="1.75593">
        <ele>161.60000610352</ele>
        <time>2014-05-07T13:09:53.000Z</time>
      </trkpt>
      <trkpt lat="48.69379" lon="1.75592">
        <ele>161.39999389648</ele>
        <time>2014-05-07T13:10:00.000Z</time>
      </trkpt>
      <trkpt lat="48.69389" lon="1.75596">
        <ele>161.39999389648</ele>
        <time>2014-05-07T13:10:07.000Z</time>
      </trkpt>
      <trkpt lat="48.69395" lon="1.75596">
        <ele>161.19999694824</ele>
        <time>2014-05-07T13:10:12.000Z</time>
      </trkpt>
      <trkpt lat="48.69407" lon="1.756">
        <ele>161</ele>
        <time>2014-05-07T13:10:20.000Z</time>
      </trkpt>
      <trkpt lat="48.69419" lon="1.75599">
        <ele>160.80000305176</ele>
        <time>2014-05-07T13:10:27.000Z</time>
      </trkpt>
      <trkpt lat="48.69423" lon="1.75598">
        <ele>160.60000610352</ele>
        <time>2014-05-07T13:10:30.000Z</time>
      </trkpt>
      <trkpt lat="48.69433" lon="1.75597">
        <ele>160.39999389648</ele>
        <time>2014-05-07T13:10:37.000Z</time>
      </trkpt>
      <trkpt lat="48.69442" lon="1.75598">
        <ele>160</ele>
        <time>2014-05-07T13:10:43.000Z</time>
      </trkpt>
      <trkpt lat="48.69453" lon="1.75596">
        <ele>159.60000610352</ele>
        <time>2014-05-07T13:10:49.000Z</time>
      </trkpt>
      <trkpt lat="48.69462" lon="1.75596">
        <ele>159.19999694824</ele>
        <time>2014-05-07T13:10:55.000Z</time>
      </trkpt>
      <trkpt lat="48.69463" lon="1.75596">
        <ele>159.19999694824</ele>
        <time>2014-05-07T13:10:56.000Z</time>
      </trkpt>
      <trkpt lat="48.6947" lon="1.75588">
        <ele>158.60000610352</ele>
        <time>2014-05-07T13:11:02.000Z</time>
      </trkpt>
      <trkpt lat="48.69473" lon="1.75585">
        <ele>158.39999389648</ele>
        <time>2014-05-07T13:11:04.000Z</time>
      </trkpt>
      <trkpt lat="48.6948" lon="1.75584">
        <ele>158</ele>
        <time>2014-05-07T13:11:09.000Z</time>
      </trkpt>
      <trkpt lat="48.69494" lon="1.75578">
        <ele>157.19999694824</ele>
        <time>2014-05-07T13:11:18.000Z</time>
      </trkpt>
      <trkpt lat="48.69505" lon="1.75573">
        <ele>156.60000610352</ele>
        <time>2014-05-07T13:11:26.000Z</time>
      </trkpt>
      <trkpt lat="48.69523" lon="1.75563">
        <ele>155.80000305176</ele>
        <time>2014-05-07T13:11:38.000Z</time>
      </trkpt>
      <trkpt lat="48.69534" lon="1.75558">
        <ele>155.60000610352</ele>
        <time>2014-05-07T13:11:46.000Z</time>
      </trkpt>
      <trkpt lat="48.69538" lon="1.75555">
        <ele>155.60000610352</ele>
        <time>2014-05-07T13:11:49.000Z</time>
      </trkpt>
      <trkpt lat="48.69549" lon="1.75553">
        <ele>155.60000610352</ele>
        <time>2014-05-07T13:11:56.000Z</time>
      </trkpt>
      <trkpt lat="48.69554" lon="1.75552">
        <ele>155.60000610352</ele>
        <time>2014-05-07T13:11:59.000Z</time>
      </trkpt>
      <trkpt lat="48.69568" lon="1.75545">
        <ele>155.39999389648</ele>
        <time>2014-05-07T13:12:09.000Z</time>
      </trkpt>
      <trkpt lat="48.69572" lon="1.75543">
        <ele>155.39999389648</ele>
        <time>2014-05-07T13:12:13.000Z</time>
      </trkpt>
      <trkpt lat="48.6958" lon="1.75537">
        <ele>155.39999389648</ele>
        <time>2014-05-07T13:12:20.000Z</time>
      </trkpt>
      <trkpt lat="48.69591" lon="1.75533">
        <ele>155.60000610352</ele>
        <time>2014-05-07T13:12:28.000Z</time>
      </trkpt>
      <trkpt lat="48.69597" lon="1.7553">
        <ele>155.80000305176</ele>
        <time>2014-05-07T13:12:33.000Z</time>
      </trkpt>
      <trkpt lat="48.69605" lon="1.75528">
        <ele>156</ele>
        <time>2014-05-07T13:12:38.000Z</time>
      </trkpt>
      <trkpt lat="48.6961" lon="1.75526">
        <ele>156</ele>
        <time>2014-05-07T13:12:42.000Z</time>
      </trkpt>
      <trkpt lat="48.69622" lon="1.75522">
        <ele>156.19999694824</ele>
        <time>2014-05-07T13:12:50.000Z</time>
      </trkpt>
      <trkpt lat="48.69633" lon="1.75516">
        <ele>156.39999389648</ele>
        <time>2014-05-07T13:12:58.000Z</time>
      </trkpt>
      <trkpt lat="48.6964" lon="1.75514">
        <ele>156.60000610352</ele>
        <time>2014-05-07T13:13:03.000Z</time>
      </trkpt>
      <trkpt lat="48.6965" lon="1.75508">
        <ele>157.19999694824</ele>
        <time>2014-05-07T13:13:11.000Z</time>
      </trkpt>
      <trkpt lat="48.6966" lon="1.75502">
        <ele>157.80000305176</ele>
        <time>2014-05-07T13:13:18.000Z</time>
      </trkpt>
      <trkpt lat="48.69668" lon="1.75499">
        <ele>158</ele>
        <time>2014-05-07T13:13:24.000Z</time>
      </trkpt>
      <trkpt lat="48.69684" lon="1.75491">
        <ele>158.80000305176</ele>
        <time>2014-05-07T13:13:35.000Z</time>
      </trkpt>
      <trkpt lat="48.69695" lon="1.75487">
        <ele>159.39999389648</ele>
        <time>2014-05-07T13:13:43.000Z</time>
      </trkpt>
      <trkpt lat="48.69703" lon="1.75484">
        <ele>160</ele>
        <time>2014-05-07T13:13:49.000Z</time>
      </trkpt>
      <trkpt lat="48.6971" lon="1.75481">
        <ele>160.39999389648</ele>
        <time>2014-05-07T13:13:55.000Z</time>
      </trkpt>
      <trkpt lat="48.69719" lon="1.75477">
        <ele>161</ele>
        <time>2014-05-07T13:14:02.000Z</time>
      </trkpt>
      <trkpt lat="48.69728" lon="1.75469">
        <ele>161.80000305176</ele>
        <time>2014-05-07T13:14:09.000Z</time>
      </trkpt>
      <trkpt lat="48.69737" lon="1.75464">
        <ele>162.60000610352</ele>
        <time>2014-05-07T13:14:16.000Z</time>
      </trkpt>
      <trkpt lat="48.69743" lon="1.75461">
        <ele>163</ele>
        <time>2014-05-07T13:14:20.000Z</time>
      </trkpt>
      <trkpt lat="48.69748" lon="1.75459">
        <ele>163.39999389648</ele>
        <time>2014-05-07T13:14:24.000Z</time>
      </trkpt>
      <trkpt lat="48.69756" lon="1.75452">
        <ele>164</ele>
        <time>2014-05-07T13:14:31.000Z</time>
      </trkpt>
      <trkpt lat="48.69766" lon="1.75448">
        <ele>164.60000610352</ele>
        <time>2014-05-07T13:14:38.000Z</time>
      </trkpt>
      <trkpt lat="48.69777" lon="1.75446">
        <ele>165.39999389648</ele>
        <time>2014-05-07T13:14:46.000Z</time>
      </trkpt>
      <trkpt lat="48.69783" lon="1.75442">
        <ele>165.80000305176</ele>
        <time>2014-05-07T13:14:51.000Z</time>
      </trkpt>
      <trkpt lat="48.6979" lon="1.75441">
        <ele>166.19999694824</ele>
        <time>2014-05-07T13:14:57.000Z</time>
      </trkpt>
      <trkpt lat="48.69794" lon="1.75441">
        <ele>166.39999389648</ele>
        <time>2014-05-07T13:15:00.000Z</time>
      </trkpt>
      <trkpt lat="48.69802" lon="1.75434">
        <ele>167</ele>
        <time>2014-05-07T13:15:07.000Z</time>
      </trkpt>
      <trkpt lat="48.69808" lon="1.75431">
        <ele>167.39999389648</ele>
        <time>2014-05-07T13:15:11.000Z</time>
      </trkpt>
      <trkpt lat="48.69811" lon="1.75429">
        <ele>167.60000610352</ele>
        <time>2014-05-07T13:15:13.000Z</time>
      </trkpt>
      <trkpt lat="48.69815" lon="1.75423">
        <ele>168</ele>
        <time>2014-05-07T13:15:17.000Z</time>
      </trkpt>
      <trkpt lat="48.69825" lon="1.75418">
        <ele>168.39999389648</ele>
        <time>2014-05-07T13:15:23.000Z</time>
      </trkpt>
      <trkpt lat="48.6983" lon="1.75414">
        <ele>168.80000305176</ele>
        <time>2014-05-07T13:15:27.000Z</time>
      </trkpt>
      <trkpt lat="48.69841" lon="1.75408">
        <ele>169.39999389648</ele>
        <time>2014-05-07T13:15:34.000Z</time>
      </trkpt>
      <trkpt lat="48.6985" lon="1.75407">
        <ele>169.80000305176</ele>
        <time>2014-05-07T13:15:41.000Z</time>
      </trkpt>
      <trkpt lat="48.69861" lon="1.75393">
        <ele>170.39999389648</ele>
        <time>2014-05-07T13:15:49.000Z</time>
      </trkpt>
      <trkpt lat="48.6987" lon="1.75387">
        <ele>170.80000305176</ele>
        <time>2014-05-07T13:15:55.000Z</time>
      </trkpt>
      <trkpt lat="48.69879" lon="1.75385">
        <ele>171</ele>
        <time>2014-05-07T13:16:01.000Z</time>
      </trkpt>
      <trkpt lat="48.6989" lon="1.75385">
        <ele>171.39999389648</ele>
        <time>2014-05-07T13:16:07.000Z</time>
      </trkpt>
      <trkpt lat="48.69898" lon="1.75386">
        <ele>171.60000610352</ele>
        <time>2014-05-07T13:16:12.000Z</time>
      </trkpt>
      <trkpt lat="48.69907" lon="1.75382">
        <ele>171.80000305176</ele>
        <time>2014-05-07T13:16:19.000Z</time>
      </trkpt>
      <trkpt lat="48.69915" lon="1.75377">
        <ele>172</ele>
        <time>2014-05-07T13:16:25.000Z</time>
      </trkpt>
      <trkpt lat="48.69924" lon="1.75373">
        <ele>172.19999694824</ele>
        <time>2014-05-07T13:16:32.000Z</time>
      </trkpt>
      <trkpt lat="48.69927" lon="1.75372">
        <ele>172.19999694824</ele>
        <time>2014-05-07T13:16:34.000Z</time>
      </trkpt>
      <trkpt lat="48.69932" lon="1.7537">
        <ele>172.39999389648</ele>
        <time>2014-05-07T13:16:38.000Z</time>
      </trkpt>
      <trkpt lat="48.69943" lon="1.75364">
        <ele>172.19999694824</ele>
        <time>2014-05-07T13:16:45.000Z</time>
      </trkpt>
      <trkpt lat="48.6995" lon="1.75361">
        <ele>171.80000305176</ele>
        <time>2014-05-07T13:16:51.000Z</time>
      </trkpt>
      <trkpt lat="48.69952" lon="1.75359">
        <ele>171.80000305176</ele>
        <time>2014-05-07T13:16:52.000Z</time>
      </trkpt>
      <trkpt lat="48.69961" lon="1.75355">
        <ele>171.39999389648</ele>
        <time>2014-05-07T13:16:57.000Z</time>
      </trkpt>
      <trkpt lat="48.69971" lon="1.75352">
        <ele>171.19999694824</ele>
        <time>2014-05-07T13:17:04.000Z</time>
      </trkpt>
      <trkpt lat="48.69974" lon="1.75351">
        <ele>171.19999694824</ele>
        <time>2014-05-07T13:17:06.000Z</time>
      </trkpt>
      <trkpt lat="48.69984" lon="1.75349">
        <ele>171</ele>
        <time>2014-05-07T13:17:12.000Z</time>
      </trkpt>
      <trkpt lat="48.69994" lon="1.75347">
        <ele>171</ele>
        <time>2014-05-07T13:17:18.000Z</time>
      </trkpt>
      <trkpt lat="48.70005" lon="1.75341">
        <ele>171.19999694824</ele>
        <time>2014-05-07T13:17:25.000Z</time>
      </trkpt>
      <trkpt lat="48.70015" lon="1.75329">
        <ele>171.60000610352</ele>
        <time>2014-05-07T13:17:32.000Z</time>
      </trkpt>
      <trkpt lat="48.70024" lon="1.75326">
        <ele>171.80000305176</ele>
        <time>2014-05-07T13:17:38.000Z</time>
      </trkpt>
      <trkpt lat="48.70028" lon="1.75324">
        <ele>171.80000305176</ele>
        <time>2014-05-07T13:17:41.000Z</time>
      </trkpt>
      <trkpt lat="48.70035" lon="1.75324">
        <ele>172</ele>
        <time>2014-05-07T13:17:46.000Z</time>
      </trkpt>
      <trkpt lat="48.70041" lon="1.75322">
        <ele>172.19999694824</ele>
        <time>2014-05-07T13:17:50.000Z</time>
      </trkpt>
      <trkpt lat="48.70047" lon="1.75314">
        <ele>172.39999389648</ele>
        <time>2014-05-07T13:17:56.000Z</time>
      </trkpt>
      <trkpt lat="48.70058" lon="1.75311">
        <ele>172.60000610352</ele>
        <time>2014-05-07T13:18:04.000Z</time>
      </trkpt>
      <trkpt lat="48.70067" lon="1.75309">
        <ele>172.80000305176</ele>
        <time>2014-05-07T13:18:09.000Z</time>
      </trkpt>
      <trkpt lat="48.70068" lon="1.75308">
        <ele>172.80000305176</ele>
        <time>2014-05-07T13:18:10.000Z</time>
      </trkpt>
      <trkpt lat="48.70078" lon="1.75304">
        <ele>173</ele>
        <time>2014-05-07T13:18:18.000Z</time>
      </trkpt>
      <trkpt lat="48.70086" lon="1.75301">
        <ele>173.19999694824</ele>
        <time>2014-05-07T13:18:24.000Z</time>
      </trkpt>
      <trkpt lat="48.70093" lon="1.75298">
        <ele>173.39999389648</ele>
        <time>2014-05-07T13:18:29.000Z</time>
      </trkpt>
      <trkpt lat="48.70098" lon="1.75296">
        <ele>173.60000610352</ele>
        <time>2014-05-07T13:18:33.000Z</time>
      </trkpt>
      <trkpt lat="48.70109" lon="1.75292">
        <ele>173.80000305176</ele>
        <time>2014-05-07T13:18:41.000Z</time>
      </trkpt>
      <trkpt lat="48.70115" lon="1.7529">
        <ele>174.19999694824</ele>
        <time>2014-05-07T13:18:46.000Z</time>
      </trkpt>
      <trkpt lat="48.7012" lon="1.75287">
        <ele>174.39999389648</ele>
        <time>2014-05-07T13:18:50.000Z</time>
      </trkpt>
      <trkpt lat="48.70131" lon="1.75281">
        <ele>175</ele>
        <time>2014-05-07T13:18:58.000Z</time>
      </trkpt>
      <trkpt lat="48.70136" lon="1.75279">
        <ele>175.19999694824</ele>
        <time>2014-05-07T13:19:02.000Z</time>
      </trkpt>
      <trkpt lat="48.70146" lon="1.75276">
        <ele>175.60000610352</ele>
        <time>2014-05-07T13:19:08.000Z</time>
      </trkpt>
      <trkpt lat="48.70155" lon="1.75265">
        <ele>175.60000610352</ele>
        <time>2014-05-07T13:19:16.000Z</time>
      </trkpt>
      <trkpt lat="48.70162" lon="1.75257">
        <ele>175.80000305176</ele>
        <time>2014-05-07T13:19:22.000Z</time>
      </trkpt>
      <trkpt lat="48.70173" lon="1.75254">
        <ele>175.80000305176</ele>
        <time>2014-05-07T13:19:29.000Z</time>
      </trkpt>
      <trkpt lat="48.70175" lon="1.75254">
        <ele>175.80000305176</ele>
        <time>2014-05-07T13:19:30.000Z</time>
      </trkpt>
      <trkpt lat="48.70183" lon="1.75251">
        <ele>176</ele>
        <time>2014-05-07T13:19:36.000Z</time>
      </trkpt>
      <trkpt lat="48.70195" lon="1.75245">
        <ele>176.39999389648</ele>
        <time>2014-05-07T13:19:45.000Z</time>
      </trkpt>
      <trkpt lat="48.70206" lon="1.75241">
        <ele>177</ele>
        <time>2014-05-07T13:19:53.000Z</time>
      </trkpt>
      <trkpt lat="48.70211" lon="1.75236">
        <ele>177.19999694824</ele>
        <time>2014-05-07T13:19:57.000Z</time>
      </trkpt>
      <trkpt lat="48.70219" lon="1.75238">
        <ele>177.60000610352</ele>
        <time>2014-05-07T13:20:03.000Z</time>
      </trkpt>
      <trkpt lat="48.70227" lon="1.75245">
        <ele>177.80000305176</ele>
        <time>2014-05-07T13:20:09.000Z</time>
      </trkpt>
      <trkpt lat="48.70231" lon="1.75247">
        <ele>178</ele>
        <time>2014-05-07T13:20:12.000Z</time>
      </trkpt>
      <trkpt lat="48.70235" lon="1.7525">
        <ele>178.19999694824</ele>
        <time>2014-05-07T13:20:15.000Z</time>
      </trkpt>
      <trkpt lat="48.70244" lon="1.75256">
        <ele>178.60000610352</ele>
        <time>2014-05-07T13:20:22.000Z</time>
      </trkpt>
      <trkpt lat="48.70253" lon="1.75264">
        <ele>178.80000305176</ele>
        <time>2014-05-07T13:20:28.000Z</time>
      </trkpt>
      <trkpt lat="48.70254" lon="1.75266">
        <ele>179</ele>
        <time>2014-05-07T13:20:29.000Z</time>
      </trkpt>
      <trkpt lat="48.70264" lon="1.75275">
        <ele>179.19999694824</ele>
        <time>2014-05-07T13:20:37.000Z</time>
      </trkpt>
      <trkpt lat="48.70265" lon="1.75276">
        <ele>179.39999389648</ele>
        <time>2014-05-07T13:20:38.000Z</time>
      </trkpt>
      <trkpt lat="48.70271" lon="1.75285">
        <ele>179.39999389648</ele>
        <time>2014-05-07T13:20:45.000Z</time>
      </trkpt>
      <trkpt lat="48.70282" lon="1.75291">
        <ele>179.60000610352</ele>
        <time>2014-05-07T13:20:53.000Z</time>
      </trkpt>
      <trkpt lat="48.70289" lon="1.75296">
        <ele>179.80000305176</ele>
        <time>2014-05-07T13:20:58.000Z</time>
      </trkpt>
      <trkpt lat="48.70298" lon="1.75307">
        <ele>179.80000305176</ele>
        <time>2014-05-07T13:21:06.000Z</time>
      </trkpt>
      <trkpt lat="48.70302" lon="1.75314">
        <ele>179.80000305176</ele>
        <time>2014-05-07T13:21:10.000Z</time>
      </trkpt>
      <trkpt lat="48.70303" lon="1.75318">
        <ele>179.80000305176</ele>
        <time>2014-05-07T13:21:12.000Z</time>
      </trkpt>
      <trkpt lat="48.70305" lon="1.75329">
        <ele>179.80000305176</ele>
        <time>2014-05-07T13:21:17.000Z</time>
      </trkpt>
      <trkpt lat="48.7031" lon="1.75337">
        <ele>180</ele>
        <time>2014-05-07T13:21:22.000Z</time>
      </trkpt>
      <trkpt lat="48.70316" lon="1.75346">
        <ele>180.19999694824</ele>
        <time>2014-05-07T13:21:28.000Z</time>
      </trkpt>
      <trkpt lat="48.70325" lon="1.75351">
        <ele>180.39999389648</ele>
        <time>2014-05-07T13:21:34.000Z</time>
      </trkpt>
      <trkpt lat="48.70328" lon="1.75353">
        <ele>180.39999389648</ele>
        <time>2014-05-07T13:21:36.000Z</time>
      </trkpt>
      <trkpt lat="48.7033" lon="1.75355">
        <ele>180.39999389648</ele>
        <time>2014-05-07T13:21:38.000Z</time>
      </trkpt>
      <trkpt lat="48.70334" lon="1.75358">
        <ele>180.60000610352</ele>
        <time>2014-05-07T13:21:42.000Z</time>
      </trkpt>
      <trkpt lat="48.70341" lon="1.75365">
        <ele>180.80000305176</ele>
        <time>2014-05-07T13:21:48.000Z</time>
      </trkpt>
      <trkpt lat="48.70342" lon="1.75366">
        <ele>180.80000305176</ele>
        <time>2014-05-07T13:21:49.000Z</time>
      </trkpt>
      <trkpt lat="48.70349" lon="1.75372">
        <ele>180.80000305176</ele>
        <time>2014-05-07T13:21:53.000Z</time>
      </trkpt>
      <trkpt lat="48.70352" lon="1.75377">
        <ele>181</ele>
        <time>2014-05-07T13:21:56.000Z</time>
      </trkpt>
      <trkpt lat="48.70354" lon="1.75383">
        <ele>181</ele>
        <time>2014-05-07T13:22:00.000Z</time>
      </trkpt>
      <trkpt lat="48.70361" lon="1.7539">
        <ele>181</ele>
        <time>2014-05-07T13:22:05.000Z</time>
      </trkpt>
      <trkpt lat="48.7037" lon="1.75396">
        <ele>181.19999694824</ele>
        <time>2014-05-07T13:22:13.000Z</time>
      </trkpt>
      <trkpt lat="48.70372" lon="1.75398">
        <ele>181.19999694824</ele>
        <time>2014-05-07T13:22:15.000Z</time>
      </trkpt>
      <trkpt lat="48.70381" lon="1.75404">
        <ele>181.39999389648</ele>
        <time>2014-05-07T13:22:22.000Z</time>
      </trkpt>
      <trkpt lat="48.70383" lon="1.75406">
        <ele>181.39999389648</ele>
        <time>2014-05-07T13:22:24.000Z</time>
      </trkpt>
      <trkpt lat="48.70392" lon="1.75405">
        <ele>181.39999389648</ele>
        <time>2014-05-07T13:22:31.000Z</time>
      </trkpt>
      <trkpt lat="48.70398" lon="1.75411">
        <ele>181.80000305176</ele>
        <time>2014-05-07T13:22:36.000Z</time>
      </trkpt>
      <trkpt lat="48.70402" lon="1.75415">
        <ele>181.80000305176</ele>
        <time>2014-05-07T13:22:39.000Z</time>
      </trkpt>
      <trkpt lat="48.70405" lon="1.75418">
        <ele>182</ele>
        <time>2014-05-07T13:22:42.000Z</time>
      </trkpt>
      <trkpt lat="48.7041" lon="1.75422">
        <ele>182.19999694824</ele>
        <time>2014-05-07T13:22:46.000Z</time>
      </trkpt>
      <trkpt lat="48.70416" lon="1.75428">
        <ele>182.39999389648</ele>
        <time>2014-05-07T13:22:53.000Z</time>
      </trkpt>
      <trkpt lat="48.70418" lon="1.75429">
        <ele>182.39999389648</ele>
        <time>2014-05-07T13:22:54.000Z</time>
      </trkpt>
      <trkpt lat="48.70427" lon="1.75435">
        <ele>182.60000610352</ele>
        <time>2014-05-07T13:23:00.000Z</time>
      </trkpt>
      <trkpt lat="48.70436" lon="1.7544">
        <ele>182.80000305176</ele>
        <time>2014-05-07T13:23:06.000Z</time>
      </trkpt>
      <trkpt lat="48.70444" lon="1.75446">
        <ele>182.80000305176</ele>
        <time>2014-05-07T13:23:12.000Z</time>
      </trkpt>
      <trkpt lat="48.7045" lon="1.7545">
        <ele>182.60000610352</ele>
        <time>2014-05-07T13:23:17.000Z</time>
      </trkpt>
      <trkpt lat="48.70455" lon="1.75455">
        <ele>182.60000610352</ele>
        <time>2014-05-07T13:23:21.000Z</time>
      </trkpt>
      <trkpt lat="48.70464" lon="1.75466">
        <ele>182.60000610352</ele>
        <time>2014-05-07T13:23:29.000Z</time>
      </trkpt>
      <trkpt lat="48.70469" lon="1.75471">
        <ele>182.39999389648</ele>
        <time>2014-05-07T13:23:34.000Z</time>
      </trkpt>
      <trkpt lat="48.70476" lon="1.75478">
        <ele>182.39999389648</ele>
        <time>2014-05-07T13:23:40.000Z</time>
      </trkpt>
      <trkpt lat="48.70479" lon="1.75482">
        <ele>182.39999389648</ele>
        <time>2014-05-07T13:23:43.000Z</time>
      </trkpt>
      <trkpt lat="48.70489" lon="1.75488">
        <ele>182.19999694824</ele>
        <time>2014-05-07T13:23:49.000Z</time>
      </trkpt>
      <trkpt lat="48.7049" lon="1.75489">
        <ele>182.19999694824</ele>
        <time>2014-05-07T13:23:50.000Z</time>
      </trkpt>
      <trkpt lat="48.70498" lon="1.75499">
        <ele>182.39999389648</ele>
        <time>2014-05-07T13:23:57.000Z</time>
      </trkpt>
      <trkpt lat="48.70505" lon="1.75507">
        <ele>182.39999389648</ele>
        <time>2014-05-07T13:24:04.000Z</time>
      </trkpt>
      <trkpt lat="48.70508" lon="1.75509">
        <ele>182.39999389648</ele>
        <time>2014-05-07T13:24:07.000Z</time>
      </trkpt>
      <trkpt lat="48.70514" lon="1.75515">
        <ele>182.60000610352</ele>
        <time>2014-05-07T13:24:12.000Z</time>
      </trkpt>
      <trkpt lat="48.70519" lon="1.75521">
        <ele>182.60000610352</ele>
        <time>2014-05-07T13:24:17.000Z</time>
      </trkpt>
      <trkpt lat="48.70526" lon="1.75532">
        <ele>183</ele>
        <time>2014-05-07T13:24:24.000Z</time>
      </trkpt>
      <trkpt lat="48.70532" lon="1.75537">
        <ele>183</ele>
        <time>2014-05-07T13:24:29.000Z</time>
      </trkpt>
      <trkpt lat="48.70535" lon="1.7554">
        <ele>183.19999694824</ele>
        <time>2014-05-07T13:24:31.000Z</time>
      </trkpt>
      <trkpt lat="48.70542" lon="1.7555">
        <ele>183.39999389648</ele>
        <time>2014-05-07T13:24:37.000Z</time>
      </trkpt>
      <trkpt lat="48.70551" lon="1.75558">
        <ele>183.60000610352</ele>
        <time>2014-05-07T13:24:44.000Z</time>
      </trkpt>
      <trkpt lat="48.7056" lon="1.75566">
        <ele>183.80000305176</ele>
        <time>2014-05-07T13:24:52.000Z</time>
      </trkpt>
      <trkpt lat="48.70564" lon="1.75569">
        <ele>183.80000305176</ele>
        <time>2014-05-07T13:24:55.000Z</time>
      </trkpt>
      <trkpt lat="48.70572" lon="1.75575">
        <ele>183.80000305176</ele>
        <time>2014-05-07T13:25:01.000Z</time>
      </trkpt>
      <trkpt lat="48.70577" lon="1.7558">
        <ele>183.80000305176</ele>
        <time>2014-05-07T13:25:06.000Z</time>
      </trkpt>
      <trkpt lat="48.7058" lon="1.75582">
        <ele>183.80000305176</ele>
        <time>2014-05-07T13:25:08.000Z</time>
      </trkpt>
      <trkpt lat="48.70585" lon="1.75587">
        <ele>183.80000305176</ele>
        <time>2014-05-07T13:25:12.000Z</time>
      </trkpt>
      <trkpt lat="48.70591" lon="1.75594">
        <ele>183.80000305176</ele>
        <time>2014-05-07T13:25:18.000Z</time>
      </trkpt>
      <trkpt lat="48.70597" lon="1.75602">
        <ele>184</ele>
        <time>2014-05-07T13:25:22.000Z</time>
      </trkpt>
      <trkpt lat="48.70602" lon="1.7561">
        <ele>184</ele>
        <time>2014-05-07T13:25:27.000Z</time>
      </trkpt>
      <trkpt lat="48.7061" lon="1.75621">
        <ele>183.39999389648</ele>
        <time>2014-05-07T13:25:34.000Z</time>
      </trkpt>
      <trkpt lat="48.70612" lon="1.75624">
        <ele>183.19999694824</ele>
        <time>2014-05-07T13:25:36.000Z</time>
      </trkpt>
      <trkpt lat="48.70614" lon="1.75627">
        <ele>183.19999694824</ele>
        <time>2014-05-07T13:25:38.000Z</time>
      </trkpt>
      <trkpt lat="48.7062" lon="1.75636">
        <ele>182.60000610352</ele>
        <time>2014-05-07T13:25:44.000Z</time>
      </trkpt>
      <trkpt lat="48.70625" lon="1.75645">
        <ele>182.19999694824</ele>
        <time>2014-05-07T13:25:50.000Z</time>
      </trkpt>
      <trkpt lat="48.70628" lon="1.75652">
        <ele>182</ele>
        <time>2014-05-07T13:25:54.000Z</time>
      </trkpt>
      <trkpt lat="48.70633" lon="1.75655">
        <ele>181.39999389648</ele>
        <time>2014-05-07T13:26:01.000Z</time>
      </trkpt>
      <trkpt lat="48.70635" lon="1.75654">
        <ele>181.19999694824</ele>
        <time>2014-05-07T13:26:04.000Z</time>
      </trkpt>
      <trkpt lat="48.70637" lon="1.75653">
        <ele>181</ele>
        <time>2014-05-07T13:26:09.000Z</time>
      </trkpt>
      <trkpt lat="48.70636" lon="1.75654">
        <ele>181</ele>
        <time>2014-05-07T13:26:11.000Z</time>
      </trkpt>
      <trkpt lat="48.70639" lon="1.75642">
        <ele>180.39999389648</ele>
        <time>2014-05-07T13:26:59.000Z</time>
      </trkpt>
      <trkpt lat="48.70641" lon="1.75629">
        <ele>179.80000305176</ele>
        <time>2014-05-07T13:27:04.000Z</time>
      </trkpt>
      <trkpt lat="48.70643" lon="1.75622">
        <ele>179.39999389648</ele>
        <time>2014-05-07T13:27:07.000Z</time>
      </trkpt>
      <trkpt lat="48.70648" lon="1.75606">
        <ele>178.80000305176</ele>
        <time>2014-05-07T13:27:14.000Z</time>
      </trkpt>
      <trkpt lat="48.70649" lon="1.75601">
        <ele>178.60000610352</ele>
        <time>2014-05-07T13:27:16.000Z</time>
      </trkpt>
      <trkpt lat="48.70657" lon="1.75584">
        <ele>177.80000305176</ele>
        <time>2014-05-07T13:27:25.000Z</time>
      </trkpt>
      <trkpt lat="48.70664" lon="1.7557">
        <ele>177</ele>
        <time>2014-05-07T13:27:34.000Z</time>
      </trkpt>
      <trkpt lat="48.70669" lon="1.75561">
        <ele>175.60000610352</ele>
        <time>2014-05-07T13:27:40.000Z</time>
      </trkpt>
      <trkpt lat="48.70672" lon="1.75553">
        <ele>174.80000305176</ele>
        <time>2014-05-07T13:27:46.000Z</time>
      </trkpt>
      <trkpt lat="48.70678" lon="1.75542">
        <ele>174.39999389648</ele>
        <time>2014-05-07T13:27:53.000Z</time>
      </trkpt>
      <trkpt lat="48.70685" lon="1.75526">
        <ele>174</ele>
        <time>2014-05-07T13:28:03.000Z</time>
      </trkpt>
      <trkpt lat="48.70691" lon="1.75512">
        <ele>173.39999389648</ele>
        <time>2014-05-07T13:28:11.000Z</time>
      </trkpt>
      <trkpt lat="48.70695" lon="1.75503">
        <ele>173</ele>
        <time>2014-05-07T13:28:16.000Z</time>
      </trkpt>
      <trkpt lat="48.70698" lon="1.75496">
        <ele>172.80000305176</ele>
        <time>2014-05-07T13:28:22.000Z</time>
      </trkpt>
      <trkpt lat="48.70698" lon="1.75496">
        <ele>172.80000305176</ele>
        <time>2014-05-07T13:28:23.000Z</time>
      </trkpt>
      <trkpt lat="48.70695" lon="1.75488">
        <ele>172.80000305176</ele>
        <time>2014-05-07T13:28:35.000Z</time>
      </trkpt>
      <trkpt lat="48.70695" lon="1.75488">
        <ele>172.80000305176</ele>
        <time>2014-05-07T13:28:37.000Z</time>
      </trkpt>
    </trkseg>
  </trk>
</gpx>